<?xml version="1.0" encoding="UTF-8" standalone="no" ?>
<gpx xmlns="http://www.topografix.com/GPX/1/1" xmlns:xsi="http://www.w3.org/2001/XMLSchema-instance" xsi:schemaLocation="http://www.topografix.com/GPX/1/1 http://www.topografix.com/GPX/1/1/gpx.xsd" version="1.1" creator="VisuGPX - https://www.visugpx.com">
  <metadata>
    <name>Mosson pignan murviel grabels</name>
  </metadata>
  <trk>
    <name><![CDATA[Mosson pignan murviel grabels_1]]></name>
    <extensions>
      <line xmlns="http://www.topografix.com/GPX/gpx_style/0/2">
        <color>0000FF</color>
        <width>4</width>
      </line>
    </extensions>
    <trkseg>
      <trkpt lat="43.60362" lon="3.81804">
        <ele>28</ele>
        <time>2022-01-08T12:21:36Z</time>
      </trkpt>
      <trkpt lat="43.60321" lon="3.81708">
        <ele>26.7</ele>
        <time>2022-01-08T12:21:46Z</time>
      </trkpt>
      <trkpt lat="43.60317" lon="3.81654">
        <ele>27</ele>
        <time>2022-01-08T12:21:56Z</time>
      </trkpt>
      <trkpt lat="43.6029" lon="3.81631">
        <ele>26.8</ele>
        <time>2022-01-08T12:22:06Z</time>
      </trkpt>
      <trkpt lat="43.60277" lon="3.81589">
        <ele>28</ele>
        <time>2022-01-08T12:22:16Z</time>
      </trkpt>
      <trkpt lat="43.60291" lon="3.81539">
        <ele>28.6</ele>
        <time>2022-01-08T12:22:26Z</time>
      </trkpt>
      <trkpt lat="43.60275" lon="3.81515">
        <ele>29.9</ele>
        <time>2022-01-08T12:22:36Z</time>
      </trkpt>
      <trkpt lat="43.60244" lon="3.81496">
        <ele>30.8</ele>
        <time>2022-01-08T12:22:46Z</time>
      </trkpt>
      <trkpt lat="43.60207" lon="3.81486">
        <ele>30.5</ele>
        <time>2022-01-08T12:22:56Z</time>
      </trkpt>
      <trkpt lat="43.60161" lon="3.81501">
        <ele>29.9</ele>
        <time>2022-01-08T12:23:06Z</time>
      </trkpt>
      <trkpt lat="43.60113" lon="3.81503">
        <ele>29.8</ele>
        <time>2022-01-08T12:23:16Z</time>
      </trkpt>
      <trkpt lat="43.60058" lon="3.815">
        <ele>29</ele>
        <time>2022-01-08T12:23:26Z</time>
      </trkpt>
      <trkpt lat="43.60008" lon="3.81488">
        <ele>28.8</ele>
        <time>2022-01-08T12:23:36Z</time>
      </trkpt>
      <trkpt lat="43.6002" lon="3.81447">
        <ele>29</ele>
        <time>2022-01-08T12:23:46Z</time>
      </trkpt>
      <trkpt lat="43.60033" lon="3.81405">
        <ele>29.2</ele>
        <time>2022-01-08T12:23:56Z</time>
      </trkpt>
      <trkpt lat="43.60025" lon="3.81367">
        <ele>29.7</ele>
        <time>2022-01-08T12:24:06Z</time>
      </trkpt>
      <trkpt lat="43.6" lon="3.81328">
        <ele>31</ele>
        <time>2022-01-08T12:24:16Z</time>
      </trkpt>
      <trkpt lat="43.59977" lon="3.81296">
        <ele>32.7</ele>
        <time>2022-01-08T12:24:26Z</time>
      </trkpt>
      <trkpt lat="43.59956" lon="3.81271">
        <ele>34.6</ele>
        <time>2022-01-08T12:24:36Z</time>
      </trkpt>
      <trkpt lat="43.59937" lon="3.81252">
        <ele>35.8</ele>
        <time>2022-01-08T12:24:46Z</time>
      </trkpt>
      <trkpt lat="43.5992" lon="3.81239">
        <ele>37.6</ele>
        <time>2022-01-08T12:24:56Z</time>
      </trkpt>
      <trkpt lat="43.59902" lon="3.81224">
        <ele>38.5</ele>
        <time>2022-01-08T12:25:06Z</time>
      </trkpt>
      <trkpt lat="43.59884" lon="3.81209">
        <ele>39.8</ele>
        <time>2022-01-08T12:25:16Z</time>
      </trkpt>
      <trkpt lat="43.59867" lon="3.81192">
        <ele>41.6</ele>
        <time>2022-01-08T12:25:26Z</time>
      </trkpt>
      <trkpt lat="43.59851" lon="3.81169">
        <ele>42.7</ele>
        <time>2022-01-08T12:25:36Z</time>
      </trkpt>
      <trkpt lat="43.59837" lon="3.81143">
        <ele>43.7</ele>
        <time>2022-01-08T12:25:46Z</time>
      </trkpt>
      <trkpt lat="43.59826" lon="3.81114">
        <ele>43.9</ele>
        <time>2022-01-08T12:25:56Z</time>
      </trkpt>
      <trkpt lat="43.59813" lon="3.81083">
        <ele>45.2</ele>
        <time>2022-01-08T12:26:06Z</time>
      </trkpt>
      <trkpt lat="43.59797" lon="3.8105">
        <ele>45.9</ele>
        <time>2022-01-08T12:26:16Z</time>
      </trkpt>
      <trkpt lat="43.59782" lon="3.81018">
        <ele>47.6</ele>
        <time>2022-01-08T12:26:26Z</time>
      </trkpt>
      <trkpt lat="43.59768" lon="3.80989">
        <ele>48.7</ele>
        <time>2022-01-08T12:26:36Z</time>
      </trkpt>
      <trkpt lat="43.59755" lon="3.80958">
        <ele>49.9</ele>
        <time>2022-01-08T12:26:46Z</time>
      </trkpt>
      <trkpt lat="43.59742" lon="3.80924">
        <ele>50.2</ele>
        <time>2022-01-08T12:26:56Z</time>
      </trkpt>
      <trkpt lat="43.59733" lon="3.80885">
        <ele>50.7</ele>
        <time>2022-01-08T12:27:06Z</time>
      </trkpt>
      <trkpt lat="43.59726" lon="3.80839">
        <ele>51</ele>
        <time>2022-01-08T12:27:16Z</time>
      </trkpt>
      <trkpt lat="43.59714" lon="3.80793">
        <ele>51</ele>
        <time>2022-01-08T12:27:26Z</time>
      </trkpt>
      <trkpt lat="43.59704" lon="3.8075">
        <ele>51</ele>
        <time>2022-01-08T12:27:36Z</time>
      </trkpt>
      <trkpt lat="43.59699" lon="3.80707">
        <ele>52</ele>
        <time>2022-01-08T12:27:46Z</time>
      </trkpt>
      <trkpt lat="43.59694" lon="3.80669">
        <ele>52</ele>
        <time>2022-01-08T12:27:56Z</time>
      </trkpt>
      <trkpt lat="43.59688" lon="3.8062">
        <ele>53</ele>
        <time>2022-01-08T12:28:06Z</time>
      </trkpt>
      <trkpt lat="43.59684" lon="3.80572">
        <ele>53.2</ele>
        <time>2022-01-08T12:28:16Z</time>
      </trkpt>
      <trkpt lat="43.59672" lon="3.80526">
        <ele>54</ele>
        <time>2022-01-08T12:28:26Z</time>
      </trkpt>
      <trkpt lat="43.59656" lon="3.80484">
        <ele>54.2</ele>
        <time>2022-01-08T12:28:36Z</time>
      </trkpt>
      <trkpt lat="43.59643" lon="3.80439">
        <ele>54.9</ele>
        <time>2022-01-08T12:28:46Z</time>
      </trkpt>
      <trkpt lat="43.59631" lon="3.80391">
        <ele>55.4</ele>
        <time>2022-01-08T12:28:56Z</time>
      </trkpt>
      <trkpt lat="43.59604" lon="3.8035">
        <ele>54.8</ele>
        <time>2022-01-08T12:29:06Z</time>
      </trkpt>
      <trkpt lat="43.59577" lon="3.80311">
        <ele>55</ele>
        <time>2022-01-08T12:29:16Z</time>
      </trkpt>
      <trkpt lat="43.5955" lon="3.80272">
        <ele>55.2</ele>
        <time>2022-01-08T12:29:26Z</time>
      </trkpt>
      <trkpt lat="43.59526" lon="3.80233">
        <ele>55.6</ele>
        <time>2022-01-08T12:29:36Z</time>
      </trkpt>
      <trkpt lat="43.59508" lon="3.80188">
        <ele>55.5</ele>
        <time>2022-01-08T12:29:46Z</time>
      </trkpt>
      <trkpt lat="43.59495" lon="3.80148">
        <ele>55.8</ele>
        <time>2022-01-08T12:29:56Z</time>
      </trkpt>
      <trkpt lat="43.59469" lon="3.80137">
        <ele>54.9</ele>
        <time>2022-01-08T12:31:26Z</time>
      </trkpt>
      <trkpt lat="43.59438" lon="3.80129">
        <ele>53.8</ele>
        <time>2022-01-08T12:31:46Z</time>
      </trkpt>
      <trkpt lat="43.59397" lon="3.8011">
        <ele>52.3</ele>
        <time>2022-01-08T12:31:56Z</time>
      </trkpt>
      <trkpt lat="43.59347" lon="3.80088">
        <ele>50.5</ele>
        <time>2022-01-08T12:32:06Z</time>
      </trkpt>
      <trkpt lat="43.59299" lon="3.80066">
        <ele>48.7</ele>
        <time>2022-01-08T12:32:16Z</time>
      </trkpt>
      <trkpt lat="43.59255" lon="3.80101">
        <ele>48.2</ele>
        <time>2022-01-08T12:32:26Z</time>
      </trkpt>
      <trkpt lat="43.59224" lon="3.80055">
        <ele>46.1</ele>
        <time>2022-01-08T12:32:36Z</time>
      </trkpt>
      <trkpt lat="43.59188" lon="3.79995">
        <ele>45.1</ele>
        <time>2022-01-08T12:32:46Z</time>
      </trkpt>
      <trkpt lat="43.59184" lon="3.79957">
        <ele>45.1</ele>
        <time>2022-01-08T12:32:56Z</time>
      </trkpt>
      <trkpt lat="43.59211" lon="3.79931">
        <ele>45.5</ele>
        <time>2022-01-08T12:33:06Z</time>
      </trkpt>
      <trkpt lat="43.5924" lon="3.79903">
        <ele>46.1</ele>
        <time>2022-01-08T12:33:16Z</time>
      </trkpt>
      <trkpt lat="43.59268" lon="3.79873">
        <ele>46.8</ele>
        <time>2022-01-08T12:33:26Z</time>
      </trkpt>
      <trkpt lat="43.59295" lon="3.79844">
        <ele>47.6</ele>
        <time>2022-01-08T12:33:36Z</time>
      </trkpt>
      <trkpt lat="43.59321" lon="3.79814">
        <ele>48.4</ele>
        <time>2022-01-08T12:33:46Z</time>
      </trkpt>
      <trkpt lat="43.59343" lon="3.79777">
        <ele>48.4</ele>
        <time>2022-01-08T12:33:56Z</time>
      </trkpt>
      <trkpt lat="43.59336" lon="3.7973">
        <ele>49.7</ele>
        <time>2022-01-08T12:34:06Z</time>
      </trkpt>
      <trkpt lat="43.59321" lon="3.79687">
        <ele>51.1</ele>
        <time>2022-01-08T12:34:16Z</time>
      </trkpt>
      <trkpt lat="43.59307" lon="3.79646">
        <ele>52.7</ele>
        <time>2022-01-08T12:34:26Z</time>
      </trkpt>
      <trkpt lat="43.59293" lon="3.79611">
        <ele>52.5</ele>
        <time>2022-01-08T12:34:36Z</time>
      </trkpt>
      <trkpt lat="43.59274" lon="3.79564">
        <ele>50.6</ele>
        <time>2022-01-08T12:34:46Z</time>
      </trkpt>
      <trkpt lat="43.59269" lon="3.79495">
        <ele>48.3</ele>
        <time>2022-01-08T12:34:56Z</time>
      </trkpt>
      <trkpt lat="43.59264" lon="3.79423">
        <ele>46.1</ele>
        <time>2022-01-08T12:35:06Z</time>
      </trkpt>
      <trkpt lat="43.59263" lon="3.79362">
        <ele>43.9</ele>
        <time>2022-01-08T12:35:16Z</time>
      </trkpt>
      <trkpt lat="43.59237" lon="3.79367">
        <ele>41.1</ele>
        <time>2022-01-08T12:35:26Z</time>
      </trkpt>
      <trkpt lat="43.59209" lon="3.79412">
        <ele>40.5</ele>
        <time>2022-01-08T12:35:36Z</time>
      </trkpt>
      <trkpt lat="43.59187" lon="3.79478">
        <ele>41.9</ele>
        <time>2022-01-08T12:35:46Z</time>
      </trkpt>
      <trkpt lat="43.59161" lon="3.79534">
        <ele>43</ele>
        <time>2022-01-08T12:35:56Z</time>
      </trkpt>
      <trkpt lat="43.59136" lon="3.79561">
        <ele>39.6</ele>
        <time>2022-01-08T12:36:06Z</time>
      </trkpt>
      <trkpt lat="43.59098" lon="3.79516">
        <ele>37.3</ele>
        <time>2022-01-08T12:36:16Z</time>
      </trkpt>
      <trkpt lat="43.59084" lon="3.79484">
        <ele>36.4</ele>
        <time>2022-01-08T12:36:26Z</time>
      </trkpt>
      <trkpt lat="43.59099" lon="3.79436">
        <ele>35.6</ele>
        <time>2022-01-08T12:36:36Z</time>
      </trkpt>
      <trkpt lat="43.59109" lon="3.7938">
        <ele>34.9</ele>
        <time>2022-01-08T12:36:46Z</time>
      </trkpt>
      <trkpt lat="43.59114" lon="3.79323">
        <ele>34.4</ele>
        <time>2022-01-08T12:36:56Z</time>
      </trkpt>
      <trkpt lat="43.59135" lon="3.79289">
        <ele>35.2</ele>
        <time>2022-01-08T12:37:06Z</time>
      </trkpt>
      <trkpt lat="43.59151" lon="3.79245">
        <ele>36.9</ele>
        <time>2022-01-08T12:37:16Z</time>
      </trkpt>
      <trkpt lat="43.59164" lon="3.79205">
        <ele>39.1</ele>
        <time>2022-01-08T12:37:26Z</time>
      </trkpt>
      <trkpt lat="43.59162" lon="3.79171">
        <ele>41.9</ele>
        <time>2022-01-08T12:37:36Z</time>
      </trkpt>
      <trkpt lat="43.59164" lon="3.7914">
        <ele>43.1</ele>
        <time>2022-01-08T12:37:46Z</time>
      </trkpt>
      <trkpt lat="43.59169" lon="3.79105">
        <ele>43.9</ele>
        <time>2022-01-08T12:37:56Z</time>
      </trkpt>
      <trkpt lat="43.59176" lon="3.79068">
        <ele>44</ele>
        <time>2022-01-08T12:38:06Z</time>
      </trkpt>
      <trkpt lat="43.59184" lon="3.79034">
        <ele>43.7</ele>
        <time>2022-01-08T12:38:16Z</time>
      </trkpt>
      <trkpt lat="43.59191" lon="3.79008">
        <ele>43.2</ele>
        <time>2022-01-08T12:38:26Z</time>
      </trkpt>
      <trkpt lat="43.59166" lon="3.78974">
        <ele>42</ele>
        <time>2022-01-08T12:38:36Z</time>
      </trkpt>
      <trkpt lat="43.59141" lon="3.78931">
        <ele>41.5</ele>
        <time>2022-01-08T12:38:46Z</time>
      </trkpt>
      <trkpt lat="43.59126" lon="3.78888">
        <ele>41.5</ele>
        <time>2022-01-08T12:38:56Z</time>
      </trkpt>
      <trkpt lat="43.59107" lon="3.78854">
        <ele>43</ele>
        <time>2022-01-08T12:39:06Z</time>
      </trkpt>
      <trkpt lat="43.59094" lon="3.78814">
        <ele>44.5</ele>
        <time>2022-01-08T12:39:16Z</time>
      </trkpt>
      <trkpt lat="43.59086" lon="3.78781">
        <ele>46.5</ele>
        <time>2022-01-08T12:39:26Z</time>
      </trkpt>
      <trkpt lat="43.59077" lon="3.78753">
        <ele>47.7</ele>
        <time>2022-01-08T12:39:36Z</time>
      </trkpt>
      <trkpt lat="43.59068" lon="3.78726">
        <ele>50</ele>
        <time>2022-01-08T12:39:46Z</time>
      </trkpt>
      <trkpt lat="43.59075" lon="3.78688">
        <ele>51</ele>
        <time>2022-01-08T12:39:56Z</time>
      </trkpt>
      <trkpt lat="43.5909" lon="3.78649">
        <ele>50.1</ele>
        <time>2022-01-08T12:40:06Z</time>
      </trkpt>
      <trkpt lat="43.59098" lon="3.78615">
        <ele>53.1</ele>
        <time>2022-01-08T12:40:16Z</time>
      </trkpt>
      <trkpt lat="43.59099" lon="3.78584">
        <ele>54.6</ele>
        <time>2022-01-08T12:40:26Z</time>
      </trkpt>
      <trkpt lat="43.59103" lon="3.78545">
        <ele>56.1</ele>
        <time>2022-01-08T12:40:36Z</time>
      </trkpt>
      <trkpt lat="43.59105" lon="3.78511">
        <ele>55.6</ele>
        <time>2022-01-08T12:40:46Z</time>
      </trkpt>
      <trkpt lat="43.59099" lon="3.78473">
        <ele>57.8</ele>
        <time>2022-01-08T12:40:56Z</time>
      </trkpt>
      <trkpt lat="43.59102" lon="3.78442">
        <ele>56.9</ele>
        <time>2022-01-08T12:41:06Z</time>
      </trkpt>
      <trkpt lat="43.591" lon="3.78412">
        <ele>57.8</ele>
        <time>2022-01-08T12:41:16Z</time>
      </trkpt>
      <trkpt lat="43.59098" lon="3.78388">
        <ele>59.8</ele>
        <time>2022-01-08T12:41:26Z</time>
      </trkpt>
      <trkpt lat="43.59097" lon="3.78365">
        <ele>61.8</ele>
        <time>2022-01-08T12:41:36Z</time>
      </trkpt>
      <trkpt lat="43.59092" lon="3.7834">
        <ele>63</ele>
        <time>2022-01-08T12:41:46Z</time>
      </trkpt>
      <trkpt lat="43.59084" lon="3.78314">
        <ele>63.7</ele>
        <time>2022-01-08T12:41:56Z</time>
      </trkpt>
      <trkpt lat="43.59069" lon="3.78283">
        <ele>64</ele>
        <time>2022-01-08T12:42:06Z</time>
      </trkpt>
      <trkpt lat="43.5905" lon="3.78248">
        <ele>64.6</ele>
        <time>2022-01-08T12:42:16Z</time>
      </trkpt>
      <trkpt lat="43.59021" lon="3.78231">
        <ele>66.6</ele>
        <time>2022-01-08T12:42:26Z</time>
      </trkpt>
      <trkpt lat="43.59002" lon="3.78226">
        <ele>68.6</ele>
        <time>2022-01-08T12:42:36Z</time>
      </trkpt>
      <trkpt lat="43.58996" lon="3.78211">
        <ele>69.1</ele>
        <time>2022-01-08T12:42:46Z</time>
      </trkpt>
      <trkpt lat="43.58974" lon="3.78191">
        <ele>69.7</ele>
        <time>2022-01-08T12:42:56Z</time>
      </trkpt>
      <trkpt lat="43.58942" lon="3.78182">
        <ele>67.9</ele>
        <time>2022-01-08T12:43:06Z</time>
      </trkpt>
      <trkpt lat="43.589" lon="3.78183">
        <ele>64.2</ele>
        <time>2022-01-08T12:43:16Z</time>
      </trkpt>
      <trkpt lat="43.58851" lon="3.78187">
        <ele>61.3</ele>
        <time>2022-01-08T12:43:26Z</time>
      </trkpt>
      <trkpt lat="43.58802" lon="3.78206">
        <ele>61.3</ele>
        <time>2022-01-08T12:43:36Z</time>
      </trkpt>
      <trkpt lat="43.58765" lon="3.78202">
        <ele>60.5</ele>
        <time>2022-01-08T12:43:46Z</time>
      </trkpt>
      <trkpt lat="43.58741" lon="3.78208">
        <ele>60.5</ele>
        <time>2022-01-08T12:43:56Z</time>
      </trkpt>
      <trkpt lat="43.58693" lon="3.78215">
        <ele>58.8</ele>
        <time>2022-01-08T12:44:06Z</time>
      </trkpt>
      <trkpt lat="43.58655" lon="3.78277">
        <ele>54.5</ele>
        <time>2022-01-08T12:44:16Z</time>
      </trkpt>
      <trkpt lat="43.58604" lon="3.78255">
        <ele>52.5</ele>
        <time>2022-01-08T12:44:26Z</time>
      </trkpt>
      <trkpt lat="43.58552" lon="3.7827">
        <ele>47.1</ele>
        <time>2022-01-08T12:44:36Z</time>
      </trkpt>
      <trkpt lat="43.58513" lon="3.78247">
        <ele>43.9</ele>
        <time>2022-01-08T12:44:46Z</time>
      </trkpt>
      <trkpt lat="43.58493" lon="3.78207">
        <ele>42.2</ele>
        <time>2022-01-08T12:44:56Z</time>
      </trkpt>
      <trkpt lat="43.58492" lon="3.78153">
        <ele>41.1</ele>
        <time>2022-01-08T12:45:06Z</time>
      </trkpt>
      <trkpt lat="43.58491" lon="3.78097">
        <ele>40</ele>
        <time>2022-01-08T12:45:16Z</time>
      </trkpt>
      <trkpt lat="43.58491" lon="3.7804">
        <ele>40</ele>
        <time>2022-01-08T12:45:26Z</time>
      </trkpt>
      <trkpt lat="43.58494" lon="3.77987">
        <ele>39.9</ele>
        <time>2022-01-08T12:45:36Z</time>
      </trkpt>
      <trkpt lat="43.58501" lon="3.77935">
        <ele>39.4</ele>
        <time>2022-01-08T12:45:46Z</time>
      </trkpt>
      <trkpt lat="43.58512" lon="3.77888">
        <ele>39.6</ele>
        <time>2022-01-08T12:45:56Z</time>
      </trkpt>
      <trkpt lat="43.58526" lon="3.77841">
        <ele>39.9</ele>
        <time>2022-01-08T12:46:06Z</time>
      </trkpt>
      <trkpt lat="43.58545" lon="3.77794">
        <ele>40.3</ele>
        <time>2022-01-08T12:46:16Z</time>
      </trkpt>
      <trkpt lat="43.58565" lon="3.77752">
        <ele>40.4</ele>
        <time>2022-01-08T12:46:26Z</time>
      </trkpt>
      <trkpt lat="43.58586" lon="3.77712">
        <ele>41</ele>
        <time>2022-01-08T12:46:36Z</time>
      </trkpt>
      <trkpt lat="43.58607" lon="3.77671">
        <ele>41.9</ele>
        <time>2022-01-08T12:46:46Z</time>
      </trkpt>
      <trkpt lat="43.58627" lon="3.77631">
        <ele>41.6</ele>
        <time>2022-01-08T12:46:56Z</time>
      </trkpt>
      <trkpt lat="43.58646" lon="3.77595">
        <ele>42.3</ele>
        <time>2022-01-08T12:48:36Z</time>
      </trkpt>
      <trkpt lat="43.58661" lon="3.77562">
        <ele>42.8</ele>
        <time>2022-01-08T12:48:56Z</time>
      </trkpt>
      <trkpt lat="43.58678" lon="3.77527">
        <ele>42.8</ele>
        <time>2022-01-08T12:49:06Z</time>
      </trkpt>
      <trkpt lat="43.58692" lon="3.77493">
        <ele>43.9</ele>
        <time>2022-01-08T12:49:16Z</time>
      </trkpt>
      <trkpt lat="43.58678" lon="3.77461">
        <ele>43.2</ele>
        <time>2022-01-08T12:49:26Z</time>
      </trkpt>
      <trkpt lat="43.58646" lon="3.77433">
        <ele>42.3</ele>
        <time>2022-01-08T12:49:36Z</time>
      </trkpt>
      <trkpt lat="43.5861" lon="3.77401">
        <ele>42</ele>
        <time>2022-01-08T12:49:46Z</time>
      </trkpt>
      <trkpt lat="43.58603" lon="3.7736">
        <ele>41.7</ele>
        <time>2022-01-08T12:49:56Z</time>
      </trkpt>
      <trkpt lat="43.5863" lon="3.77338">
        <ele>42.7</ele>
        <time>2022-01-08T12:50:06Z</time>
      </trkpt>
      <trkpt lat="43.58665" lon="3.77341">
        <ele>43</ele>
        <time>2022-01-08T12:50:16Z</time>
      </trkpt>
      <trkpt lat="43.58695" lon="3.77321">
        <ele>44.5</ele>
        <time>2022-01-08T12:50:26Z</time>
      </trkpt>
      <trkpt lat="43.58713" lon="3.77283">
        <ele>45.7</ele>
        <time>2022-01-08T12:50:36Z</time>
      </trkpt>
      <trkpt lat="43.58725" lon="3.77236">
        <ele>46.1</ele>
        <time>2022-01-08T12:50:46Z</time>
      </trkpt>
      <trkpt lat="43.58736" lon="3.77186">
        <ele>46.3</ele>
        <time>2022-01-08T12:50:56Z</time>
      </trkpt>
      <trkpt lat="43.58747" lon="3.77136">
        <ele>45.9</ele>
        <time>2022-01-08T12:51:06Z</time>
      </trkpt>
      <trkpt lat="43.58761" lon="3.7709">
        <ele>46.4</ele>
        <time>2022-01-08T12:51:16Z</time>
      </trkpt>
      <trkpt lat="43.5879" lon="3.77062">
        <ele>47</ele>
        <time>2022-01-08T12:51:26Z</time>
      </trkpt>
      <trkpt lat="43.58818" lon="3.77038">
        <ele>48</ele>
        <time>2022-01-08T12:51:36Z</time>
      </trkpt>
      <trkpt lat="43.58847" lon="3.77015">
        <ele>48.5</ele>
        <time>2022-01-08T12:51:46Z</time>
      </trkpt>
      <trkpt lat="43.58877" lon="3.76987">
        <ele>49.3</ele>
        <time>2022-01-08T12:51:56Z</time>
      </trkpt>
      <trkpt lat="43.58904" lon="3.76961">
        <ele>49.8</ele>
        <time>2022-01-08T12:52:06Z</time>
      </trkpt>
      <trkpt lat="43.58933" lon="3.76976">
        <ele>51.2</ele>
        <time>2022-01-08T12:52:16Z</time>
      </trkpt>
      <trkpt lat="43.58956" lon="3.77016">
        <ele>53.2</ele>
        <time>2022-01-08T12:52:26Z</time>
      </trkpt>
      <trkpt lat="43.58984" lon="3.77038">
        <ele>54.8</ele>
        <time>2022-01-08T12:52:36Z</time>
      </trkpt>
      <trkpt lat="43.59008" lon="3.7701">
        <ele>56.3</ele>
        <time>2022-01-08T12:52:46Z</time>
      </trkpt>
      <trkpt lat="43.59032" lon="3.76984">
        <ele>57</ele>
        <time>2022-01-08T12:52:56Z</time>
      </trkpt>
      <trkpt lat="43.59059" lon="3.76955">
        <ele>56.6</ele>
        <time>2022-01-08T12:53:06Z</time>
      </trkpt>
      <trkpt lat="43.59085" lon="3.76924">
        <ele>57.3</ele>
        <time>2022-01-08T12:53:16Z</time>
      </trkpt>
      <trkpt lat="43.5911" lon="3.76895">
        <ele>57.2</ele>
        <time>2022-01-08T12:53:26Z</time>
      </trkpt>
      <trkpt lat="43.59135" lon="3.76865">
        <ele>58.6</ele>
        <time>2022-01-08T12:53:36Z</time>
      </trkpt>
      <trkpt lat="43.59159" lon="3.76838">
        <ele>59.3</ele>
        <time>2022-01-08T12:53:46Z</time>
      </trkpt>
      <trkpt lat="43.59185" lon="3.76828">
        <ele>61.8</ele>
        <time>2022-01-08T12:53:56Z</time>
      </trkpt>
      <trkpt lat="43.59204" lon="3.76864">
        <ele>62</ele>
        <time>2022-01-08T12:54:06Z</time>
      </trkpt>
      <trkpt lat="43.59234" lon="3.76881">
        <ele>63.3</ele>
        <time>2022-01-08T12:54:16Z</time>
      </trkpt>
      <trkpt lat="43.59263" lon="3.76897">
        <ele>64.5</ele>
        <time>2022-01-08T12:54:26Z</time>
      </trkpt>
      <trkpt lat="43.59293" lon="3.7691">
        <ele>65.4</ele>
        <time>2022-01-08T12:54:36Z</time>
      </trkpt>
      <trkpt lat="43.59321" lon="3.76926">
        <ele>66.8</ele>
        <time>2022-01-08T12:54:46Z</time>
      </trkpt>
      <trkpt lat="43.59346" lon="3.76952">
        <ele>68</ele>
        <time>2022-01-08T12:54:56Z</time>
      </trkpt>
      <trkpt lat="43.59372" lon="3.76975">
        <ele>68.6</ele>
        <time>2022-01-08T12:55:06Z</time>
      </trkpt>
      <trkpt lat="43.59403" lon="3.76991">
        <ele>69.3</ele>
        <time>2022-01-08T12:55:16Z</time>
      </trkpt>
      <trkpt lat="43.59431" lon="3.77005">
        <ele>69.6</ele>
        <time>2022-01-08T12:55:26Z</time>
      </trkpt>
      <trkpt lat="43.59462" lon="3.77025">
        <ele>68.9</ele>
        <time>2022-01-08T12:55:36Z</time>
      </trkpt>
      <trkpt lat="43.59501" lon="3.77051">
        <ele>66.5</ele>
        <time>2022-01-08T12:55:46Z</time>
      </trkpt>
      <trkpt lat="43.5952" lon="3.77032">
        <ele>67.4</ele>
        <time>2022-01-08T12:55:56Z</time>
      </trkpt>
      <trkpt lat="43.59525" lon="3.77001">
        <ele>69</ele>
        <time>2022-01-08T12:56:06Z</time>
      </trkpt>
      <trkpt lat="43.5953" lon="3.76973">
        <ele>70.8</ele>
        <time>2022-01-08T12:56:16Z</time>
      </trkpt>
      <trkpt lat="43.59536" lon="3.76945">
        <ele>72.1</ele>
        <time>2022-01-08T12:56:26Z</time>
      </trkpt>
      <trkpt lat="43.59541" lon="3.76912">
        <ele>72.3</ele>
        <time>2022-01-08T12:56:36Z</time>
      </trkpt>
      <trkpt lat="43.59547" lon="3.76881">
        <ele>73.2</ele>
        <time>2022-01-08T12:56:46Z</time>
      </trkpt>
      <trkpt lat="43.59553" lon="3.76844">
        <ele>75</ele>
        <time>2022-01-08T12:56:56Z</time>
      </trkpt>
      <trkpt lat="43.59544" lon="3.76832">
        <ele>76.5</ele>
        <time>2022-01-08T12:57:06Z</time>
      </trkpt>
      <trkpt lat="43.5953" lon="3.76826">
        <ele>77.4</ele>
        <time>2022-01-08T12:57:16Z</time>
      </trkpt>
      <trkpt lat="43.59512" lon="3.76816">
        <ele>79.7</ele>
        <time>2022-01-08T12:57:26Z</time>
      </trkpt>
      <trkpt lat="43.59512" lon="3.76799">
        <ele>81</ele>
        <time>2022-01-08T12:57:36Z</time>
      </trkpt>
      <trkpt lat="43.59501" lon="3.76786">
        <ele>82.6</ele>
        <time>2022-01-08T12:57:46Z</time>
      </trkpt>
      <trkpt lat="43.59503" lon="3.76768">
        <ele>83.2</ele>
        <time>2022-01-08T12:57:56Z</time>
      </trkpt>
      <trkpt lat="43.59511" lon="3.76752">
        <ele>83.5</ele>
        <time>2022-01-08T12:58:06Z</time>
      </trkpt>
      <trkpt lat="43.59518" lon="3.76736">
        <ele>84.2</ele>
        <time>2022-01-08T12:58:16Z</time>
      </trkpt>
      <trkpt lat="43.59532" lon="3.76715">
        <ele>85</ele>
        <time>2022-01-08T12:58:26Z</time>
      </trkpt>
      <trkpt lat="43.59546" lon="3.7669">
        <ele>85.7</ele>
        <time>2022-01-08T12:58:36Z</time>
      </trkpt>
      <trkpt lat="43.5956" lon="3.76666">
        <ele>86.8</ele>
        <time>2022-01-08T12:58:46Z</time>
      </trkpt>
      <trkpt lat="43.5958" lon="3.76665">
        <ele>85.4</ele>
        <time>2022-01-08T12:58:56Z</time>
      </trkpt>
      <trkpt lat="43.59613" lon="3.76641">
        <ele>84.3</ele>
        <time>2022-01-08T12:59:06Z</time>
      </trkpt>
      <trkpt lat="43.59646" lon="3.76601">
        <ele>82.9</ele>
        <time>2022-01-08T12:59:16Z</time>
      </trkpt>
      <trkpt lat="43.59666" lon="3.76557">
        <ele>83</ele>
        <time>2022-01-08T12:59:26Z</time>
      </trkpt>
      <trkpt lat="43.5969" lon="3.76523">
        <ele>83.1</ele>
        <time>2022-01-08T12:59:36Z</time>
      </trkpt>
      <trkpt lat="43.5971" lon="3.76493">
        <ele>84.2</ele>
        <time>2022-01-08T12:59:46Z</time>
      </trkpt>
      <trkpt lat="43.59729" lon="3.76464">
        <ele>85</ele>
        <time>2022-01-08T12:59:56Z</time>
      </trkpt>
      <trkpt lat="43.5975" lon="3.7644">
        <ele>85.6</ele>
        <time>2022-01-08T13:00:06Z</time>
      </trkpt>
      <trkpt lat="43.59769" lon="3.7642">
        <ele>86.7</ele>
        <time>2022-01-08T13:00:16Z</time>
      </trkpt>
      <trkpt lat="43.59789" lon="3.764">
        <ele>87.7</ele>
        <time>2022-01-08T13:00:26Z</time>
      </trkpt>
      <trkpt lat="43.59808" lon="3.76381">
        <ele>88.3</ele>
        <time>2022-01-08T13:00:36Z</time>
      </trkpt>
      <trkpt lat="43.59827" lon="3.76361">
        <ele>89.7</ele>
        <time>2022-01-08T13:00:46Z</time>
      </trkpt>
      <trkpt lat="43.59841" lon="3.76332">
        <ele>92</ele>
        <time>2022-01-08T13:00:56Z</time>
      </trkpt>
      <trkpt lat="43.59857" lon="3.76319">
        <ele>90.5</ele>
        <time>2022-01-08T13:01:06Z</time>
      </trkpt>
      <trkpt lat="43.59879" lon="3.76332">
        <ele>89.7</ele>
        <time>2022-01-08T13:01:16Z</time>
      </trkpt>
      <trkpt lat="43.59906" lon="3.76336">
        <ele>91.9</ele>
        <time>2022-01-08T13:01:26Z</time>
      </trkpt>
      <trkpt lat="43.59924" lon="3.76308">
        <ele>92.9</ele>
        <time>2022-01-08T13:01:36Z</time>
      </trkpt>
      <trkpt lat="43.59935" lon="3.76275">
        <ele>93.7</ele>
        <time>2022-01-08T13:01:46Z</time>
      </trkpt>
      <trkpt lat="43.59941" lon="3.76234">
        <ele>94.6</ele>
        <time>2022-01-08T13:01:56Z</time>
      </trkpt>
      <trkpt lat="43.59944" lon="3.76197">
        <ele>95</ele>
        <time>2022-01-08T13:02:06Z</time>
      </trkpt>
      <trkpt lat="43.5995" lon="3.7616">
        <ele>96.2</ele>
        <time>2022-01-08T13:02:16Z</time>
      </trkpt>
      <trkpt lat="43.59961" lon="3.76137">
        <ele>98.5</ele>
        <time>2022-01-08T13:02:26Z</time>
      </trkpt>
      <trkpt lat="43.59976" lon="3.76121">
        <ele>100.8</ele>
        <time>2022-01-08T13:02:36Z</time>
      </trkpt>
      <trkpt lat="43.59995" lon="3.76114">
        <ele>101.7</ele>
        <time>2022-01-08T13:02:46Z</time>
      </trkpt>
      <trkpt lat="43.59993" lon="3.76083">
        <ele>102</ele>
        <time>2022-01-08T13:02:56Z</time>
      </trkpt>
      <trkpt lat="43.59986" lon="3.76052">
        <ele>103.6</ele>
        <time>2022-01-08T13:03:06Z</time>
      </trkpt>
      <trkpt lat="43.59992" lon="3.76026">
        <ele>104</ele>
        <time>2022-01-08T13:03:16Z</time>
      </trkpt>
      <trkpt lat="43.59993" lon="3.76006">
        <ele>105.3</ele>
        <time>2022-01-08T13:03:26Z</time>
      </trkpt>
      <trkpt lat="43.59978" lon="3.76">
        <ele>107.4</ele>
        <time>2022-01-08T13:03:36Z</time>
      </trkpt>
      <trkpt lat="43.59958" lon="3.76005">
        <ele>107.1</ele>
        <time>2022-01-08T13:03:46Z</time>
      </trkpt>
      <trkpt lat="43.59924" lon="3.76009">
        <ele>105.4</ele>
        <time>2022-01-08T13:03:56Z</time>
      </trkpt>
      <trkpt lat="43.5991" lon="3.76025">
        <ele>102.5</ele>
        <time>2022-01-08T13:04:06Z</time>
      </trkpt>
      <trkpt lat="43.59884" lon="3.76034">
        <ele>100</ele>
        <time>2022-01-08T13:04:16Z</time>
      </trkpt>
      <trkpt lat="43.59862" lon="3.76046">
        <ele>100.9</ele>
        <time>2022-01-08T13:04:36Z</time>
      </trkpt>
      <trkpt lat="43.59852" lon="3.76031">
        <ele>102.3</ele>
        <time>2022-01-08T13:04:46Z</time>
      </trkpt>
      <trkpt lat="43.59842" lon="3.76003">
        <ele>103.1</ele>
        <time>2022-01-08T13:04:56Z</time>
      </trkpt>
      <trkpt lat="43.59832" lon="3.75977">
        <ele>103.3</ele>
        <time>2022-01-08T13:05:06Z</time>
      </trkpt>
      <trkpt lat="43.59814" lon="3.7597">
        <ele>105.1</ele>
        <time>2022-01-08T13:05:16Z</time>
      </trkpt>
      <trkpt lat="43.59795" lon="3.75975">
        <ele>106.9</ele>
        <time>2022-01-08T13:05:26Z</time>
      </trkpt>
      <trkpt lat="43.5978" lon="3.75968">
        <ele>107.8</ele>
        <time>2022-01-08T13:05:36Z</time>
      </trkpt>
      <trkpt lat="43.59776" lon="3.75937">
        <ele>107.7</ele>
        <time>2022-01-08T13:05:46Z</time>
      </trkpt>
      <trkpt lat="43.59782" lon="3.75899">
        <ele>106.8</ele>
        <time>2022-01-08T13:05:56Z</time>
      </trkpt>
      <trkpt lat="43.59808" lon="3.75874">
        <ele>107</ele>
        <time>2022-01-08T13:06:06Z</time>
      </trkpt>
      <trkpt lat="43.59832" lon="3.75847">
        <ele>107.1</ele>
        <time>2022-01-08T13:06:16Z</time>
      </trkpt>
      <trkpt lat="43.5985" lon="3.75818">
        <ele>108.3</ele>
        <time>2022-01-08T13:06:26Z</time>
      </trkpt>
      <trkpt lat="43.59868" lon="3.75789">
        <ele>109.6</ele>
        <time>2022-01-08T13:06:36Z</time>
      </trkpt>
      <trkpt lat="43.59884" lon="3.75764">
        <ele>111.2</ele>
        <time>2022-01-08T13:06:46Z</time>
      </trkpt>
      <trkpt lat="43.59897" lon="3.75743">
        <ele>112.1</ele>
        <time>2022-01-08T13:06:56Z</time>
      </trkpt>
      <trkpt lat="43.59911" lon="3.75725">
        <ele>113.6</ele>
        <time>2022-01-08T13:07:06Z</time>
      </trkpt>
      <trkpt lat="43.59928" lon="3.75709">
        <ele>115.1</ele>
        <time>2022-01-08T13:07:16Z</time>
      </trkpt>
      <trkpt lat="43.5995" lon="3.75694">
        <ele>115.6</ele>
        <time>2022-01-08T13:07:26Z</time>
      </trkpt>
      <trkpt lat="43.59974" lon="3.75667">
        <ele>113.8</ele>
        <time>2022-01-08T13:07:36Z</time>
      </trkpt>
      <trkpt lat="43.59994" lon="3.75631">
        <ele>113.4</ele>
        <time>2022-01-08T13:07:46Z</time>
      </trkpt>
      <trkpt lat="43.60014" lon="3.75593">
        <ele>112.5</ele>
        <time>2022-01-08T13:07:56Z</time>
      </trkpt>
      <trkpt lat="43.60039" lon="3.75561">
        <ele>110.7</ele>
        <time>2022-01-08T13:08:06Z</time>
      </trkpt>
      <trkpt lat="43.60066" lon="3.75531">
        <ele>109.7</ele>
        <time>2022-01-08T13:08:16Z</time>
      </trkpt>
      <trkpt lat="43.60095" lon="3.75499">
        <ele>109.4</ele>
        <time>2022-01-08T13:08:26Z</time>
      </trkpt>
      <trkpt lat="43.60125" lon="3.75466">
        <ele>110.3</ele>
        <time>2022-01-08T13:08:36Z</time>
      </trkpt>
      <trkpt lat="43.60144" lon="3.7544">
        <ele>111.1</ele>
        <time>2022-01-08T13:08:46Z</time>
      </trkpt>
      <trkpt lat="43.60126" lon="3.75415">
        <ele>112</ele>
        <time>2022-01-08T13:08:56Z</time>
      </trkpt>
      <trkpt lat="43.60103" lon="3.75404">
        <ele>113.3</ele>
        <time>2022-01-08T13:09:06Z</time>
      </trkpt>
      <trkpt lat="43.60091" lon="3.75386">
        <ele>115.1</ele>
        <time>2022-01-08T13:09:16Z</time>
      </trkpt>
      <trkpt lat="43.60104" lon="3.75355">
        <ele>114</ele>
        <time>2022-01-08T13:09:26Z</time>
      </trkpt>
      <trkpt lat="43.60127" lon="3.75342">
        <ele>111.2</ele>
        <time>2022-01-08T13:09:36Z</time>
      </trkpt>
      <trkpt lat="43.60157" lon="3.75309">
        <ele>105.8</ele>
        <time>2022-01-08T13:09:46Z</time>
      </trkpt>
      <trkpt lat="43.60181" lon="3.75269">
        <ele>103.1</ele>
        <time>2022-01-08T13:09:56Z</time>
      </trkpt>
      <trkpt lat="43.60197" lon="3.75249">
        <ele>100.5</ele>
        <time>2022-01-08T13:10:16Z</time>
      </trkpt>
      <trkpt lat="43.6021" lon="3.75269">
        <ele>99.7</ele>
        <time>2022-01-08T13:10:36Z</time>
      </trkpt>
      <trkpt lat="43.60225" lon="3.75276">
        <ele>98.8</ele>
        <time>2022-01-08T13:10:46Z</time>
      </trkpt>
      <trkpt lat="43.60247" lon="3.75297">
        <ele>100.4</ele>
        <time>2022-01-08T13:10:56Z</time>
      </trkpt>
      <trkpt lat="43.60263" lon="3.75309">
        <ele>101.7</ele>
        <time>2022-01-08T13:11:06Z</time>
      </trkpt>
      <trkpt lat="43.60285" lon="3.75286">
        <ele>101.5</ele>
        <time>2022-01-08T13:13:56Z</time>
      </trkpt>
      <trkpt lat="43.60302" lon="3.7526">
        <ele>101.8</ele>
        <time>2022-01-08T13:14:16Z</time>
      </trkpt>
      <trkpt lat="43.60317" lon="3.75239">
        <ele>101.5</ele>
        <time>2022-01-08T13:14:26Z</time>
      </trkpt>
      <trkpt lat="43.60334" lon="3.75216">
        <ele>101.8</ele>
        <time>2022-01-08T13:14:36Z</time>
      </trkpt>
      <trkpt lat="43.60354" lon="3.75189">
        <ele>101.7</ele>
        <time>2022-01-08T13:14:46Z</time>
      </trkpt>
      <trkpt lat="43.60377" lon="3.75156">
        <ele>101.7</ele>
        <time>2022-01-08T13:14:56Z</time>
      </trkpt>
      <trkpt lat="43.60402" lon="3.75124">
        <ele>101.2</ele>
        <time>2022-01-08T13:15:06Z</time>
      </trkpt>
      <trkpt lat="43.60426" lon="3.7509">
        <ele>101.1</ele>
        <time>2022-01-08T13:15:16Z</time>
      </trkpt>
      <trkpt lat="43.60449" lon="3.75049">
        <ele>101.4</ele>
        <time>2022-01-08T13:15:26Z</time>
      </trkpt>
      <trkpt lat="43.60466" lon="3.75049">
        <ele>101.1</ele>
        <time>2022-01-08T13:15:36Z</time>
      </trkpt>
      <trkpt lat="43.60484" lon="3.75118">
        <ele>96.6</ele>
        <time>2022-01-08T13:15:46Z</time>
      </trkpt>
      <trkpt lat="43.60524" lon="3.75203">
        <ele>93.2</ele>
        <time>2022-01-08T13:15:56Z</time>
      </trkpt>
      <trkpt lat="43.6059" lon="3.7524">
        <ele>89.6</ele>
        <time>2022-01-08T13:16:06Z</time>
      </trkpt>
      <trkpt lat="43.60623" lon="3.75319">
        <ele>87.4</ele>
        <time>2022-01-08T13:16:16Z</time>
      </trkpt>
      <trkpt lat="43.60646" lon="3.75391">
        <ele>86.7</ele>
        <time>2022-01-08T13:16:26Z</time>
      </trkpt>
      <trkpt lat="43.60662" lon="3.75453">
        <ele>86.7</ele>
        <time>2022-01-08T13:16:36Z</time>
      </trkpt>
      <trkpt lat="43.60676" lon="3.75517">
        <ele>86.7</ele>
        <time>2022-01-08T13:16:46Z</time>
      </trkpt>
      <trkpt lat="43.60683" lon="3.75584">
        <ele>85.8</ele>
        <time>2022-01-08T13:16:56Z</time>
      </trkpt>
      <trkpt lat="43.60681" lon="3.75654">
        <ele>85.3</ele>
        <time>2022-01-08T13:17:06Z</time>
      </trkpt>
      <trkpt lat="43.60685" lon="3.75728">
        <ele>84.7</ele>
        <time>2022-01-08T13:17:16Z</time>
      </trkpt>
      <trkpt lat="43.60716" lon="3.75781">
        <ele>82</ele>
        <time>2022-01-08T13:17:26Z</time>
      </trkpt>
      <trkpt lat="43.60746" lon="3.7579">
        <ele>80.4</ele>
        <time>2022-01-08T13:17:36Z</time>
      </trkpt>
      <trkpt lat="43.60783" lon="3.75804">
        <ele>78.9</ele>
        <time>2022-01-08T13:17:46Z</time>
      </trkpt>
      <trkpt lat="43.60795" lon="3.75768">
        <ele>79.7</ele>
        <time>2022-01-08T13:17:56Z</time>
      </trkpt>
      <trkpt lat="43.60804" lon="3.75732">
        <ele>80.7</ele>
        <time>2022-01-08T13:18:06Z</time>
      </trkpt>
      <trkpt lat="43.60812" lon="3.75699">
        <ele>81.4</ele>
        <time>2022-01-08T13:18:16Z</time>
      </trkpt>
      <trkpt lat="43.60821" lon="3.75661">
        <ele>82.8</ele>
        <time>2022-01-08T13:18:26Z</time>
      </trkpt>
      <trkpt lat="43.60832" lon="3.7562">
        <ele>82.4</ele>
        <time>2022-01-08T13:18:36Z</time>
      </trkpt>
      <trkpt lat="43.60839" lon="3.75587">
        <ele>84.7</ele>
        <time>2022-01-08T13:18:46Z</time>
      </trkpt>
      <trkpt lat="43.6085" lon="3.75554">
        <ele>84.9</ele>
        <time>2022-01-08T13:18:56Z</time>
      </trkpt>
      <trkpt lat="43.60869" lon="3.75522">
        <ele>84.5</ele>
        <time>2022-01-08T13:19:06Z</time>
      </trkpt>
      <trkpt lat="43.60882" lon="3.75493">
        <ele>83.3</ele>
        <time>2022-01-08T13:19:16Z</time>
      </trkpt>
      <trkpt lat="43.60884" lon="3.75473">
        <ele>83.8</ele>
        <time>2022-01-08T13:19:36Z</time>
      </trkpt>
      <trkpt lat="43.60894" lon="3.75456">
        <ele>84.2</ele>
        <time>2022-01-08T13:19:46Z</time>
      </trkpt>
      <trkpt lat="43.60908" lon="3.7547">
        <ele>83.8</ele>
        <time>2022-01-08T13:19:56Z</time>
      </trkpt>
      <trkpt lat="43.60924" lon="3.75465">
        <ele>85.2</ele>
        <time>2022-01-08T13:20:06Z</time>
      </trkpt>
      <trkpt lat="43.60936" lon="3.75453">
        <ele>87.7</ele>
        <time>2022-01-08T13:20:16Z</time>
      </trkpt>
      <trkpt lat="43.60948" lon="3.75443">
        <ele>89.9</ele>
        <time>2022-01-08T13:20:26Z</time>
      </trkpt>
      <trkpt lat="43.60963" lon="3.75429">
        <ele>90.3</ele>
        <time>2022-01-08T13:20:36Z</time>
      </trkpt>
      <trkpt lat="43.60986" lon="3.75415">
        <ele>90.6</ele>
        <time>2022-01-08T13:20:46Z</time>
      </trkpt>
      <trkpt lat="43.61006" lon="3.75399">
        <ele>91.8</ele>
        <time>2022-01-08T13:20:56Z</time>
      </trkpt>
      <trkpt lat="43.61026" lon="3.75389">
        <ele>92.1</ele>
        <time>2022-01-08T13:21:06Z</time>
      </trkpt>
      <trkpt lat="43.61047" lon="3.75377">
        <ele>92.6</ele>
        <time>2022-01-08T13:21:16Z</time>
      </trkpt>
      <trkpt lat="43.61052" lon="3.75351">
        <ele>93.9</ele>
        <time>2022-01-08T13:21:26Z</time>
      </trkpt>
      <trkpt lat="43.61038" lon="3.75333">
        <ele>95.6</ele>
        <time>2022-01-08T13:21:36Z</time>
      </trkpt>
      <trkpt lat="43.61035" lon="3.7531">
        <ele>96.2</ele>
        <time>2022-01-08T13:21:46Z</time>
      </trkpt>
      <trkpt lat="43.61049" lon="3.75288">
        <ele>97.4</ele>
        <time>2022-01-08T13:21:56Z</time>
      </trkpt>
      <trkpt lat="43.61056" lon="3.7526">
        <ele>98.7</ele>
        <time>2022-01-08T13:22:06Z</time>
      </trkpt>
      <trkpt lat="43.61055" lon="3.75229">
        <ele>99.7</ele>
        <time>2022-01-08T13:22:16Z</time>
      </trkpt>
      <trkpt lat="43.61052" lon="3.75197">
        <ele>100.7</ele>
        <time>2022-01-08T13:22:26Z</time>
      </trkpt>
      <trkpt lat="43.6105" lon="3.75163">
        <ele>100.3</ele>
        <time>2022-01-08T13:22:36Z</time>
      </trkpt>
      <trkpt lat="43.61053" lon="3.75123">
        <ele>99.7</ele>
        <time>2022-01-08T13:22:46Z</time>
      </trkpt>
      <trkpt lat="43.61063" lon="3.75095">
        <ele>99.8</ele>
        <time>2022-01-08T13:22:56Z</time>
      </trkpt>
      <trkpt lat="43.61084" lon="3.75087">
        <ele>101.1</ele>
        <time>2022-01-08T13:23:06Z</time>
      </trkpt>
      <trkpt lat="43.61104" lon="3.75079">
        <ele>103.3</ele>
        <time>2022-01-08T13:23:16Z</time>
      </trkpt>
      <trkpt lat="43.61121" lon="3.7507">
        <ele>104.9</ele>
        <time>2022-01-08T13:23:26Z</time>
      </trkpt>
      <trkpt lat="43.61137" lon="3.75063">
        <ele>106.1</ele>
        <time>2022-01-08T13:23:36Z</time>
      </trkpt>
      <trkpt lat="43.61151" lon="3.75055">
        <ele>108.2</ele>
        <time>2022-01-08T13:23:46Z</time>
      </trkpt>
      <trkpt lat="43.61164" lon="3.75051">
        <ele>110.2</ele>
        <time>2022-01-08T13:23:56Z</time>
      </trkpt>
      <trkpt lat="43.61177" lon="3.75047">
        <ele>111.4</ele>
        <time>2022-01-08T13:24:06Z</time>
      </trkpt>
      <trkpt lat="43.61191" lon="3.75041">
        <ele>112.6</ele>
        <time>2022-01-08T13:24:16Z</time>
      </trkpt>
      <trkpt lat="43.61203" lon="3.75035">
        <ele>114.2</ele>
        <time>2022-01-08T13:24:26Z</time>
      </trkpt>
      <trkpt lat="43.61216" lon="3.75032">
        <ele>116.1</ele>
        <time>2022-01-08T13:24:36Z</time>
      </trkpt>
      <trkpt lat="43.61229" lon="3.75034">
        <ele>117.7</ele>
        <time>2022-01-08T13:24:46Z</time>
      </trkpt>
      <trkpt lat="43.61232" lon="3.75056">
        <ele>117.7</ele>
        <time>2022-01-08T13:24:56Z</time>
      </trkpt>
      <trkpt lat="43.61238" lon="3.7508">
        <ele>117.8</ele>
        <time>2022-01-08T13:25:06Z</time>
      </trkpt>
      <trkpt lat="43.61242" lon="3.75106">
        <ele>117.6</ele>
        <time>2022-01-08T13:25:16Z</time>
      </trkpt>
      <trkpt lat="43.61258" lon="3.75121">
        <ele>117.7</ele>
        <time>2022-01-08T13:25:26Z</time>
      </trkpt>
      <trkpt lat="43.61275" lon="3.75115">
        <ele>118.7</ele>
        <time>2022-01-08T13:25:36Z</time>
      </trkpt>
      <trkpt lat="43.6129" lon="3.75108">
        <ele>119.9</ele>
        <time>2022-01-08T13:25:46Z</time>
      </trkpt>
      <trkpt lat="43.61304" lon="3.751">
        <ele>120.9</ele>
        <time>2022-01-08T13:25:56Z</time>
      </trkpt>
      <trkpt lat="43.61319" lon="3.75088">
        <ele>122.8</ele>
        <time>2022-01-08T13:26:06Z</time>
      </trkpt>
      <trkpt lat="43.61332" lon="3.75075">
        <ele>124.6</ele>
        <time>2022-01-08T13:26:16Z</time>
      </trkpt>
      <trkpt lat="43.61347" lon="3.75065">
        <ele>126.5</ele>
        <time>2022-01-08T13:26:26Z</time>
      </trkpt>
      <trkpt lat="43.61361" lon="3.75069">
        <ele>128.5</ele>
        <time>2022-01-08T13:26:36Z</time>
      </trkpt>
      <trkpt lat="43.61369" lon="3.75086">
        <ele>129.7</ele>
        <time>2022-01-08T13:26:46Z</time>
      </trkpt>
      <trkpt lat="43.61379" lon="3.75102">
        <ele>131.9</ele>
        <time>2022-01-08T13:26:56Z</time>
      </trkpt>
      <trkpt lat="43.61385" lon="3.75119">
        <ele>133.2</ele>
        <time>2022-01-08T13:27:06Z</time>
      </trkpt>
      <trkpt lat="43.6139" lon="3.7514">
        <ele>134.3</ele>
        <time>2022-01-08T13:27:16Z</time>
      </trkpt>
      <trkpt lat="43.61394" lon="3.75161">
        <ele>135.5</ele>
        <time>2022-01-08T13:27:26Z</time>
      </trkpt>
      <trkpt lat="43.61399" lon="3.75183">
        <ele>136.3</ele>
        <time>2022-01-08T13:27:36Z</time>
      </trkpt>
      <trkpt lat="43.61408" lon="3.75173">
        <ele>139.3</ele>
        <time>2022-01-08T13:27:46Z</time>
      </trkpt>
      <trkpt lat="43.61412" lon="3.75153">
        <ele>140.7</ele>
        <time>2022-01-08T13:27:56Z</time>
      </trkpt>
      <trkpt lat="43.61419" lon="3.75134">
        <ele>142.3</ele>
        <time>2022-01-08T13:28:06Z</time>
      </trkpt>
      <trkpt lat="43.61429" lon="3.75115">
        <ele>143</ele>
        <time>2022-01-08T13:28:16Z</time>
      </trkpt>
      <trkpt lat="43.61443" lon="3.75091">
        <ele>142.7</ele>
        <time>2022-01-08T13:28:26Z</time>
      </trkpt>
      <trkpt lat="43.61452" lon="3.75071">
        <ele>141.3</ele>
        <time>2022-01-08T13:28:36Z</time>
      </trkpt>
      <trkpt lat="43.61442" lon="3.7505">
        <ele>142.2</ele>
        <time>2022-01-08T13:31:26Z</time>
      </trkpt>
      <trkpt lat="43.61442" lon="3.75025">
        <ele>144</ele>
        <time>2022-01-08T13:31:46Z</time>
      </trkpt>
      <trkpt lat="43.61448" lon="3.75006">
        <ele>145.9</ele>
        <time>2022-01-08T13:31:56Z</time>
      </trkpt>
      <trkpt lat="43.61447" lon="3.74985">
        <ele>147.8</ele>
        <time>2022-01-08T13:32:06Z</time>
      </trkpt>
      <trkpt lat="43.61448" lon="3.7496">
        <ele>149.7</ele>
        <time>2022-01-08T13:32:16Z</time>
      </trkpt>
      <trkpt lat="43.61455" lon="3.74938">
        <ele>151.1</ele>
        <time>2022-01-08T13:32:26Z</time>
      </trkpt>
      <trkpt lat="43.61454" lon="3.74912">
        <ele>153</ele>
        <time>2022-01-08T13:32:36Z</time>
      </trkpt>
      <trkpt lat="43.61451" lon="3.74889">
        <ele>154.8</ele>
        <time>2022-01-08T13:32:46Z</time>
      </trkpt>
      <trkpt lat="43.61449" lon="3.74869">
        <ele>154.7</ele>
        <time>2022-01-08T13:32:56Z</time>
      </trkpt>
      <trkpt lat="43.61456" lon="3.74832">
        <ele>150.9</ele>
        <time>2022-01-08T13:33:06Z</time>
      </trkpt>
      <trkpt lat="43.61446" lon="3.74787">
        <ele>145.7</ele>
        <time>2022-01-08T13:33:16Z</time>
      </trkpt>
      <trkpt lat="43.61448" lon="3.74745">
        <ele>141.3</ele>
        <time>2022-01-08T13:33:26Z</time>
      </trkpt>
      <trkpt lat="43.61469" lon="3.74737">
        <ele>138.4</ele>
        <time>2022-01-08T13:33:36Z</time>
      </trkpt>
      <trkpt lat="43.61493" lon="3.74736">
        <ele>133.1</ele>
        <time>2022-01-08T13:33:46Z</time>
      </trkpt>
      <trkpt lat="43.61518" lon="3.74721">
        <ele>127.2</ele>
        <time>2022-01-08T13:33:56Z</time>
      </trkpt>
      <trkpt lat="43.61564" lon="3.747">
        <ele>119.3</ele>
        <time>2022-01-08T13:34:06Z</time>
      </trkpt>
      <trkpt lat="43.61607" lon="3.74657">
        <ele>109.9</ele>
        <time>2022-01-08T13:34:16Z</time>
      </trkpt>
      <trkpt lat="43.61602" lon="3.74598">
        <ele>108.5</ele>
        <time>2022-01-08T13:36:46Z</time>
      </trkpt>
      <trkpt lat="43.61589" lon="3.74571">
        <ele>109.5</ele>
        <time>2022-01-08T13:37:06Z</time>
      </trkpt>
      <trkpt lat="43.61581" lon="3.74551">
        <ele>109.2</ele>
        <time>2022-01-08T13:37:16Z</time>
      </trkpt>
      <trkpt lat="43.61568" lon="3.7452">
        <ele>110.1</ele>
        <time>2022-01-08T13:37:26Z</time>
      </trkpt>
      <trkpt lat="43.61553" lon="3.74502">
        <ele>110.9</ele>
        <time>2022-01-08T13:37:36Z</time>
      </trkpt>
      <trkpt lat="43.6153" lon="3.7449">
        <ele>113.1</ele>
        <time>2022-01-08T13:37:46Z</time>
      </trkpt>
      <trkpt lat="43.61504" lon="3.74482">
        <ele>113.5</ele>
        <time>2022-01-08T13:37:56Z</time>
      </trkpt>
      <trkpt lat="43.61476" lon="3.74471">
        <ele>113.4</ele>
        <time>2022-01-08T13:38:06Z</time>
      </trkpt>
      <trkpt lat="43.61443" lon="3.74456">
        <ele>112.9</ele>
        <time>2022-01-08T13:38:16Z</time>
      </trkpt>
      <trkpt lat="43.61418" lon="3.74427">
        <ele>113.9</ele>
        <time>2022-01-08T13:38:26Z</time>
      </trkpt>
      <trkpt lat="43.61398" lon="3.74398">
        <ele>116</ele>
        <time>2022-01-08T13:38:36Z</time>
      </trkpt>
      <trkpt lat="43.61382" lon="3.74373">
        <ele>117.9</ele>
        <time>2022-01-08T13:38:46Z</time>
      </trkpt>
      <trkpt lat="43.61366" lon="3.74349">
        <ele>119.6</ele>
        <time>2022-01-08T13:38:56Z</time>
      </trkpt>
      <trkpt lat="43.61354" lon="3.74325">
        <ele>121.5</ele>
        <time>2022-01-08T13:39:06Z</time>
      </trkpt>
      <trkpt lat="43.61337" lon="3.74306">
        <ele>122.7</ele>
        <time>2022-01-08T13:39:16Z</time>
      </trkpt>
      <trkpt lat="43.61316" lon="3.74292">
        <ele>123.4</ele>
        <time>2022-01-08T13:39:26Z</time>
      </trkpt>
      <trkpt lat="43.61295" lon="3.74277">
        <ele>124.8</ele>
        <time>2022-01-08T13:39:36Z</time>
      </trkpt>
      <trkpt lat="43.61275" lon="3.7426">
        <ele>126.1</ele>
        <time>2022-01-08T13:39:46Z</time>
      </trkpt>
      <trkpt lat="43.61253" lon="3.74241">
        <ele>126.6</ele>
        <time>2022-01-08T13:39:56Z</time>
      </trkpt>
      <trkpt lat="43.61232" lon="3.74222">
        <ele>127.9</ele>
        <time>2022-01-08T13:40:06Z</time>
      </trkpt>
      <trkpt lat="43.6121" lon="3.74203">
        <ele>129.5</ele>
        <time>2022-01-08T13:40:16Z</time>
      </trkpt>
      <trkpt lat="43.61189" lon="3.74184">
        <ele>131</ele>
        <time>2022-01-08T13:40:26Z</time>
      </trkpt>
      <trkpt lat="43.6117" lon="3.74159">
        <ele>132.6</ele>
        <time>2022-01-08T13:40:36Z</time>
      </trkpt>
      <trkpt lat="43.61157" lon="3.74126">
        <ele>133.4</ele>
        <time>2022-01-08T13:40:46Z</time>
      </trkpt>
      <trkpt lat="43.61143" lon="3.74095">
        <ele>134.1</ele>
        <time>2022-01-08T13:40:56Z</time>
      </trkpt>
      <trkpt lat="43.6113" lon="3.74065">
        <ele>134.2</ele>
        <time>2022-01-08T13:41:06Z</time>
      </trkpt>
      <trkpt lat="43.61117" lon="3.74034">
        <ele>135.4</ele>
        <time>2022-01-08T13:41:16Z</time>
      </trkpt>
      <trkpt lat="43.61105" lon="3.74003">
        <ele>135.7</ele>
        <time>2022-01-08T13:41:26Z</time>
      </trkpt>
      <trkpt lat="43.61091" lon="3.73973">
        <ele>137.2</ele>
        <time>2022-01-08T13:41:36Z</time>
      </trkpt>
      <trkpt lat="43.61078" lon="3.73944">
        <ele>139</ele>
        <time>2022-01-08T13:41:46Z</time>
      </trkpt>
      <trkpt lat="43.61069" lon="3.73912">
        <ele>139.7</ele>
        <time>2022-01-08T13:41:56Z</time>
      </trkpt>
      <trkpt lat="43.6106" lon="3.73882">
        <ele>141.5</ele>
        <time>2022-01-08T13:42:06Z</time>
      </trkpt>
      <trkpt lat="43.61047" lon="3.73851">
        <ele>142.4</ele>
        <time>2022-01-08T13:42:16Z</time>
      </trkpt>
      <trkpt lat="43.61026" lon="3.73825">
        <ele>141.8</ele>
        <time>2022-01-08T13:42:26Z</time>
      </trkpt>
      <trkpt lat="43.61006" lon="3.73806">
        <ele>142.4</ele>
        <time>2022-01-08T13:42:36Z</time>
      </trkpt>
      <trkpt lat="43.61015" lon="3.73786">
        <ele>144.5</ele>
        <time>2022-01-08T13:42:46Z</time>
      </trkpt>
      <trkpt lat="43.61013" lon="3.73761">
        <ele>145.2</ele>
        <time>2022-01-08T13:42:56Z</time>
      </trkpt>
      <trkpt lat="43.61004" lon="3.73736">
        <ele>145.3</ele>
        <time>2022-01-08T13:43:06Z</time>
      </trkpt>
      <trkpt lat="43.60994" lon="3.73715">
        <ele>145.6</ele>
        <time>2022-01-08T13:43:16Z</time>
      </trkpt>
      <trkpt lat="43.60974" lon="3.73698">
        <ele>144.9</ele>
        <time>2022-01-08T13:43:26Z</time>
      </trkpt>
      <trkpt lat="43.60948" lon="3.73662">
        <ele>143.4</ele>
        <time>2022-01-08T13:43:36Z</time>
      </trkpt>
      <trkpt lat="43.60933" lon="3.7362">
        <ele>143.3</ele>
        <time>2022-01-08T13:43:46Z</time>
      </trkpt>
      <trkpt lat="43.60922" lon="3.73587">
        <ele>144.8</ele>
        <time>2022-01-08T13:43:56Z</time>
      </trkpt>
      <trkpt lat="43.60912" lon="3.73556">
        <ele>147</ele>
        <time>2022-01-08T13:44:06Z</time>
      </trkpt>
      <trkpt lat="43.60906" lon="3.73525">
        <ele>148.7</ele>
        <time>2022-01-08T13:44:16Z</time>
      </trkpt>
      <trkpt lat="43.60896" lon="3.73497">
        <ele>148.4</ele>
        <time>2022-01-08T13:44:26Z</time>
      </trkpt>
      <trkpt lat="43.60885" lon="3.7347">
        <ele>146.8</ele>
        <time>2022-01-08T13:44:36Z</time>
      </trkpt>
      <trkpt lat="43.60885" lon="3.73427">
        <ele>148</ele>
        <time>2022-01-08T13:44:46Z</time>
      </trkpt>
      <trkpt lat="43.60883" lon="3.73392">
        <ele>148.8</ele>
        <time>2022-01-08T13:44:56Z</time>
      </trkpt>
      <trkpt lat="43.60878" lon="3.73354">
        <ele>149.3</ele>
        <time>2022-01-08T13:45:06Z</time>
      </trkpt>
      <trkpt lat="43.60879" lon="3.73315">
        <ele>149.5</ele>
        <time>2022-01-08T13:45:16Z</time>
      </trkpt>
      <trkpt lat="43.60882" lon="3.7328">
        <ele>150.3</ele>
        <time>2022-01-08T13:45:26Z</time>
      </trkpt>
      <trkpt lat="43.60882" lon="3.73242">
        <ele>150.9</ele>
        <time>2022-01-08T13:45:36Z</time>
      </trkpt>
      <trkpt lat="43.6087" lon="3.73202">
        <ele>152.3</ele>
        <time>2022-01-08T13:45:46Z</time>
      </trkpt>
      <trkpt lat="43.60859" lon="3.73166">
        <ele>151.7</ele>
        <time>2022-01-08T13:45:56Z</time>
      </trkpt>
      <trkpt lat="43.60844" lon="3.73126">
        <ele>152.2</ele>
        <time>2022-01-08T13:46:06Z</time>
      </trkpt>
      <trkpt lat="43.60841" lon="3.73093">
        <ele>153.9</ele>
        <time>2022-01-08T13:46:16Z</time>
      </trkpt>
      <trkpt lat="43.60838" lon="3.73061">
        <ele>154.9</ele>
        <time>2022-01-08T13:46:26Z</time>
      </trkpt>
      <trkpt lat="43.60836" lon="3.73027">
        <ele>156.7</ele>
        <time>2022-01-08T13:46:36Z</time>
      </trkpt>
      <trkpt lat="43.60832" lon="3.72989">
        <ele>156</ele>
        <time>2022-01-08T13:46:46Z</time>
      </trkpt>
      <trkpt lat="43.60828" lon="3.72949">
        <ele>156.1</ele>
        <time>2022-01-08T13:46:56Z</time>
      </trkpt>
      <trkpt lat="43.60826" lon="3.72892">
        <ele>155.2</ele>
        <time>2022-01-08T13:47:06Z</time>
      </trkpt>
      <trkpt lat="43.60833" lon="3.72839">
        <ele>155.4</ele>
        <time>2022-01-08T13:47:16Z</time>
      </trkpt>
      <trkpt lat="43.60839" lon="3.728">
        <ele>155.1</ele>
        <time>2022-01-08T13:47:26Z</time>
      </trkpt>
      <trkpt lat="43.60832" lon="3.72764">
        <ele>154.6</ele>
        <time>2022-01-08T13:47:36Z</time>
      </trkpt>
      <trkpt lat="43.60825" lon="3.72733">
        <ele>154.9</ele>
        <time>2022-01-08T13:47:46Z</time>
      </trkpt>
      <trkpt lat="43.6082" lon="3.72702">
        <ele>156.2</ele>
        <time>2022-01-08T13:47:56Z</time>
      </trkpt>
      <trkpt lat="43.60817" lon="3.72671">
        <ele>157.3</ele>
        <time>2022-01-08T13:48:06Z</time>
      </trkpt>
      <trkpt lat="43.60811" lon="3.72638">
        <ele>158.4</ele>
        <time>2022-01-08T13:48:16Z</time>
      </trkpt>
      <trkpt lat="43.60805" lon="3.72608">
        <ele>159.1</ele>
        <time>2022-01-08T13:48:26Z</time>
      </trkpt>
      <trkpt lat="43.60797" lon="3.7258">
        <ele>160.6</ele>
        <time>2022-01-08T13:48:36Z</time>
      </trkpt>
      <trkpt lat="43.60786" lon="3.7255">
        <ele>162.7</ele>
        <time>2022-01-08T13:48:46Z</time>
      </trkpt>
      <trkpt lat="43.60777" lon="3.72518">
        <ele>163.1</ele>
        <time>2022-01-08T13:48:56Z</time>
      </trkpt>
      <trkpt lat="43.60769" lon="3.7249">
        <ele>164.3</ele>
        <time>2022-01-08T13:49:06Z</time>
      </trkpt>
      <trkpt lat="43.60762" lon="3.72463">
        <ele>165.4</ele>
        <time>2022-01-08T13:49:16Z</time>
      </trkpt>
      <trkpt lat="43.60754" lon="3.72436">
        <ele>166.6</ele>
        <time>2022-01-08T13:49:26Z</time>
      </trkpt>
      <trkpt lat="43.60746" lon="3.72409">
        <ele>167.9</ele>
        <time>2022-01-08T13:49:36Z</time>
      </trkpt>
      <trkpt lat="43.60734" lon="3.72388">
        <ele>170.3</ele>
        <time>2022-01-08T13:49:46Z</time>
      </trkpt>
      <trkpt lat="43.60726" lon="3.72367">
        <ele>172.4</ele>
        <time>2022-01-08T13:49:56Z</time>
      </trkpt>
      <trkpt lat="43.60715" lon="3.7235">
        <ele>174.3</ele>
        <time>2022-01-08T13:50:06Z</time>
      </trkpt>
      <trkpt lat="43.60705" lon="3.72332">
        <ele>175.9</ele>
        <time>2022-01-08T13:50:16Z</time>
      </trkpt>
      <trkpt lat="43.60697" lon="3.72312">
        <ele>176.8</ele>
        <time>2022-01-08T13:50:26Z</time>
      </trkpt>
      <trkpt lat="43.60704" lon="3.72283">
        <ele>177.1</ele>
        <time>2022-01-08T13:53:16Z</time>
      </trkpt>
      <trkpt lat="43.60712" lon="3.72266">
        <ele>177.7</ele>
        <time>2022-01-08T13:53:36Z</time>
      </trkpt>
      <trkpt lat="43.60719" lon="3.72243">
        <ele>179.5</ele>
        <time>2022-01-08T13:53:46Z</time>
      </trkpt>
      <trkpt lat="43.6072" lon="3.72216">
        <ele>180.6</ele>
        <time>2022-01-08T13:53:56Z</time>
      </trkpt>
      <trkpt lat="43.60721" lon="3.72193">
        <ele>181.8</ele>
        <time>2022-01-08T13:54:06Z</time>
      </trkpt>
      <trkpt lat="43.60719" lon="3.7217">
        <ele>183.6</ele>
        <time>2022-01-08T13:54:16Z</time>
      </trkpt>
      <trkpt lat="43.60717" lon="3.72147">
        <ele>184.9</ele>
        <time>2022-01-08T13:54:26Z</time>
      </trkpt>
      <trkpt lat="43.60715" lon="3.72125">
        <ele>186.7</ele>
        <time>2022-01-08T13:54:36Z</time>
      </trkpt>
      <trkpt lat="43.60717" lon="3.72102">
        <ele>189.4</ele>
        <time>2022-01-08T13:54:46Z</time>
      </trkpt>
      <trkpt lat="43.60719" lon="3.7208">
        <ele>190.8</ele>
        <time>2022-01-08T13:54:56Z</time>
      </trkpt>
      <trkpt lat="43.60721" lon="3.72059">
        <ele>191.6</ele>
        <time>2022-01-08T13:55:06Z</time>
      </trkpt>
      <trkpt lat="43.6072" lon="3.72036">
        <ele>192.9</ele>
        <time>2022-01-08T13:55:16Z</time>
      </trkpt>
      <trkpt lat="43.60714" lon="3.72017">
        <ele>194.7</ele>
        <time>2022-01-08T13:55:26Z</time>
      </trkpt>
      <trkpt lat="43.60705" lon="3.72003">
        <ele>196.2</ele>
        <time>2022-01-08T13:55:36Z</time>
      </trkpt>
      <trkpt lat="43.60696" lon="3.71989">
        <ele>197.6</ele>
        <time>2022-01-08T13:55:46Z</time>
      </trkpt>
      <trkpt lat="43.60687" lon="3.71977">
        <ele>199.2</ele>
        <time>2022-01-08T13:55:56Z</time>
      </trkpt>
      <trkpt lat="43.6068" lon="3.7196">
        <ele>201.2</ele>
        <time>2022-01-08T13:56:06Z</time>
      </trkpt>
      <trkpt lat="43.60678" lon="3.71941">
        <ele>203.6</ele>
        <time>2022-01-08T13:56:16Z</time>
      </trkpt>
      <trkpt lat="43.60675" lon="3.71924">
        <ele>205.1</ele>
        <time>2022-01-08T13:56:26Z</time>
      </trkpt>
      <trkpt lat="43.60671" lon="3.71904">
        <ele>205.9</ele>
        <time>2022-01-08T13:56:36Z</time>
      </trkpt>
      <trkpt lat="43.60667" lon="3.71883">
        <ele>205.8</ele>
        <time>2022-01-08T13:56:46Z</time>
      </trkpt>
      <trkpt lat="43.60663" lon="3.71856">
        <ele>204.7</ele>
        <time>2022-01-08T13:56:56Z</time>
      </trkpt>
      <trkpt lat="43.60657" lon="3.71828">
        <ele>203.2</ele>
        <time>2022-01-08T13:57:06Z</time>
      </trkpt>
      <trkpt lat="43.60635" lon="3.71773">
        <ele>197.9</ele>
        <time>2022-01-08T13:58:16Z</time>
      </trkpt>
      <trkpt lat="43.6061" lon="3.71706">
        <ele>194.9</ele>
        <time>2022-01-08T13:58:36Z</time>
      </trkpt>
      <trkpt lat="43.60647" lon="3.71677">
        <ele>191.8</ele>
        <time>2022-01-08T13:58:46Z</time>
      </trkpt>
      <trkpt lat="43.60696" lon="3.7165">
        <ele>189.4</ele>
        <time>2022-01-08T13:58:56Z</time>
      </trkpt>
      <trkpt lat="43.60712" lon="3.71576">
        <ele>186.9</ele>
        <time>2022-01-08T13:59:06Z</time>
      </trkpt>
      <trkpt lat="43.60702" lon="3.71514">
        <ele>182.2</ele>
        <time>2022-01-08T13:59:16Z</time>
      </trkpt>
      <trkpt lat="43.60685" lon="3.71484">
        <ele>180.1</ele>
        <time>2022-01-08T13:59:26Z</time>
      </trkpt>
      <trkpt lat="43.60659" lon="3.71464">
        <ele>179.4</ele>
        <time>2022-01-08T13:59:36Z</time>
      </trkpt>
      <trkpt lat="43.60624" lon="3.71439">
        <ele>177.1</ele>
        <time>2022-01-08T13:59:46Z</time>
      </trkpt>
      <trkpt lat="43.606" lon="3.71398">
        <ele>174.4</ele>
        <time>2022-01-08T13:59:56Z</time>
      </trkpt>
      <trkpt lat="43.60573" lon="3.71345">
        <ele>171.8</ele>
        <time>2022-01-08T14:00:06Z</time>
      </trkpt>
      <trkpt lat="43.60553" lon="3.71279">
        <ele>170.9</ele>
        <time>2022-01-08T14:00:16Z</time>
      </trkpt>
      <trkpt lat="43.60525" lon="3.71225">
        <ele>166.8</ele>
        <time>2022-01-08T14:00:26Z</time>
      </trkpt>
      <trkpt lat="43.60489" lon="3.71181">
        <ele>160.7</ele>
        <time>2022-01-08T14:00:36Z</time>
      </trkpt>
      <trkpt lat="43.60453" lon="3.71155">
        <ele>156.7</ele>
        <time>2022-01-08T14:00:46Z</time>
      </trkpt>
      <trkpt lat="43.60434" lon="3.71138">
        <ele>152.8</ele>
        <time>2022-01-08T14:00:56Z</time>
      </trkpt>
      <trkpt lat="43.60396" lon="3.71129">
        <ele>148.9</ele>
        <time>2022-01-08T14:01:06Z</time>
      </trkpt>
      <trkpt lat="43.60366" lon="3.71108">
        <ele>143.7</ele>
        <time>2022-01-08T14:01:16Z</time>
      </trkpt>
      <trkpt lat="43.60349" lon="3.71103">
        <ele>143</ele>
        <time>2022-01-08T14:01:46Z</time>
      </trkpt>
      <trkpt lat="43.60322" lon="3.71104">
        <ele>142.3</ele>
        <time>2022-01-08T14:02:06Z</time>
      </trkpt>
      <trkpt lat="43.60295" lon="3.71107">
        <ele>140.9</ele>
        <time>2022-01-08T14:02:16Z</time>
      </trkpt>
      <trkpt lat="43.60255" lon="3.71111">
        <ele>138.4</ele>
        <time>2022-01-08T14:02:26Z</time>
      </trkpt>
      <trkpt lat="43.60214" lon="3.71122">
        <ele>138.7</ele>
        <time>2022-01-08T14:02:36Z</time>
      </trkpt>
      <trkpt lat="43.60165" lon="3.71137">
        <ele>135.5</ele>
        <time>2022-01-08T14:02:46Z</time>
      </trkpt>
      <trkpt lat="43.60129" lon="3.71125">
        <ele>136.6</ele>
        <time>2022-01-08T14:02:56Z</time>
      </trkpt>
      <trkpt lat="43.60096" lon="3.71078">
        <ele>134.5</ele>
        <time>2022-01-08T14:03:06Z</time>
      </trkpt>
      <trkpt lat="43.60054" lon="3.71001">
        <ele>129.8</ele>
        <time>2022-01-08T14:03:16Z</time>
      </trkpt>
      <trkpt lat="43.60003" lon="3.70953">
        <ele>129.1</ele>
        <time>2022-01-08T14:03:26Z</time>
      </trkpt>
      <trkpt lat="43.5999" lon="3.70911">
        <ele>130.6</ele>
        <time>2022-01-08T14:03:36Z</time>
      </trkpt>
      <trkpt lat="43.59974" lon="3.70893">
        <ele>130.8</ele>
        <time>2022-01-08T14:03:46Z</time>
      </trkpt>
      <trkpt lat="43.59983" lon="3.70856">
        <ele>132.9</ele>
        <time>2022-01-08T14:04:26Z</time>
      </trkpt>
      <trkpt lat="43.59987" lon="3.70831">
        <ele>134.1</ele>
        <time>2022-01-08T14:04:46Z</time>
      </trkpt>
      <trkpt lat="43.60003" lon="3.70811">
        <ele>135.1</ele>
        <time>2022-01-08T14:04:56Z</time>
      </trkpt>
      <trkpt lat="43.60016" lon="3.70789">
        <ele>138.1</ele>
        <time>2022-01-08T14:05:06Z</time>
      </trkpt>
      <trkpt lat="43.60023" lon="3.70769">
        <ele>138</ele>
        <time>2022-01-08T14:05:16Z</time>
      </trkpt>
      <trkpt lat="43.6003" lon="3.70753">
        <ele>137.8</ele>
        <time>2022-01-08T14:05:26Z</time>
      </trkpt>
      <trkpt lat="43.60033" lon="3.70734">
        <ele>140.4</ele>
        <time>2022-01-08T14:05:36Z</time>
      </trkpt>
      <trkpt lat="43.60037" lon="3.70715">
        <ele>142.5</ele>
        <time>2022-01-08T14:05:46Z</time>
      </trkpt>
      <trkpt lat="43.6004" lon="3.70694">
        <ele>143.7</ele>
        <time>2022-01-08T14:05:56Z</time>
      </trkpt>
      <trkpt lat="43.60043" lon="3.70676">
        <ele>144.2</ele>
        <time>2022-01-08T14:06:06Z</time>
      </trkpt>
      <trkpt lat="43.60049" lon="3.70657">
        <ele>143.8</ele>
        <time>2022-01-08T14:06:16Z</time>
      </trkpt>
      <trkpt lat="43.60057" lon="3.70635">
        <ele>144.1</ele>
        <time>2022-01-08T14:06:26Z</time>
      </trkpt>
      <trkpt lat="43.60061" lon="3.70615">
        <ele>148.1</ele>
        <time>2022-01-08T14:06:36Z</time>
      </trkpt>
      <trkpt lat="43.60064" lon="3.70593">
        <ele>150.1</ele>
        <time>2022-01-08T14:06:46Z</time>
      </trkpt>
      <trkpt lat="43.60066" lon="3.70574">
        <ele>151.3</ele>
        <time>2022-01-08T14:06:56Z</time>
      </trkpt>
      <trkpt lat="43.60066" lon="3.70555">
        <ele>152.4</ele>
        <time>2022-01-08T14:07:06Z</time>
      </trkpt>
      <trkpt lat="43.60069" lon="3.70536">
        <ele>152.7</ele>
        <time>2022-01-08T14:07:16Z</time>
      </trkpt>
      <trkpt lat="43.60074" lon="3.70515">
        <ele>152.8</ele>
        <time>2022-01-08T14:07:26Z</time>
      </trkpt>
      <trkpt lat="43.60078" lon="3.70495">
        <ele>153.2</ele>
        <time>2022-01-08T14:07:36Z</time>
      </trkpt>
      <trkpt lat="43.60078" lon="3.70479">
        <ele>154.5</ele>
        <time>2022-01-08T14:07:46Z</time>
      </trkpt>
      <trkpt lat="43.60079" lon="3.70467">
        <ele>155.7</ele>
        <time>2022-01-08T14:07:56Z</time>
      </trkpt>
      <trkpt lat="43.60085" lon="3.70457">
        <ele>155.8</ele>
        <time>2022-01-08T14:08:06Z</time>
      </trkpt>
      <trkpt lat="43.60095" lon="3.70445">
        <ele>157.1</ele>
        <time>2022-01-08T14:08:16Z</time>
      </trkpt>
      <trkpt lat="43.60108" lon="3.70436">
        <ele>157.3</ele>
        <time>2022-01-08T14:08:26Z</time>
      </trkpt>
      <trkpt lat="43.60123" lon="3.70432">
        <ele>158.2</ele>
        <time>2022-01-08T14:08:36Z</time>
      </trkpt>
      <trkpt lat="43.60138" lon="3.70433">
        <ele>159.3</ele>
        <time>2022-01-08T14:08:46Z</time>
      </trkpt>
      <trkpt lat="43.60152" lon="3.70437">
        <ele>160.7</ele>
        <time>2022-01-08T14:08:56Z</time>
      </trkpt>
      <trkpt lat="43.60167" lon="3.70439">
        <ele>162.2</ele>
        <time>2022-01-08T14:09:06Z</time>
      </trkpt>
      <trkpt lat="43.6018" lon="3.7044">
        <ele>163.5</ele>
        <time>2022-01-08T14:09:16Z</time>
      </trkpt>
      <trkpt lat="43.60194" lon="3.70439">
        <ele>165</ele>
        <time>2022-01-08T14:09:26Z</time>
      </trkpt>
      <trkpt lat="43.60205" lon="3.7044">
        <ele>166.1</ele>
        <time>2022-01-08T14:09:36Z</time>
      </trkpt>
      <trkpt lat="43.60226" lon="3.70442">
        <ele>168.5</ele>
        <time>2022-01-08T14:09:46Z</time>
      </trkpt>
      <trkpt lat="43.60246" lon="3.7044">
        <ele>171.4</ele>
        <time>2022-01-08T14:10:06Z</time>
      </trkpt>
      <trkpt lat="43.6026" lon="3.70441">
        <ele>173.1</ele>
        <time>2022-01-08T14:10:16Z</time>
      </trkpt>
      <trkpt lat="43.60272" lon="3.70454">
        <ele>175.9</ele>
        <time>2022-01-08T14:10:26Z</time>
      </trkpt>
      <trkpt lat="43.60283" lon="3.70464">
        <ele>178.2</ele>
        <time>2022-01-08T14:10:36Z</time>
      </trkpt>
      <trkpt lat="43.60296" lon="3.70458">
        <ele>178.6</ele>
        <time>2022-01-08T14:10:46Z</time>
      </trkpt>
      <trkpt lat="43.60309" lon="3.70461">
        <ele>180.2</ele>
        <time>2022-01-08T14:10:56Z</time>
      </trkpt>
      <trkpt lat="43.60323" lon="3.7046">
        <ele>182.4</ele>
        <time>2022-01-08T14:11:06Z</time>
      </trkpt>
      <trkpt lat="43.60329" lon="3.70445">
        <ele>182.4</ele>
        <time>2022-01-08T14:11:16Z</time>
      </trkpt>
      <trkpt lat="43.60336" lon="3.7043">
        <ele>183</ele>
        <time>2022-01-08T14:11:26Z</time>
      </trkpt>
      <trkpt lat="43.60346" lon="3.70418">
        <ele>184.3</ele>
        <time>2022-01-08T14:11:36Z</time>
      </trkpt>
      <trkpt lat="43.60354" lon="3.70405">
        <ele>186</ele>
        <time>2022-01-08T14:11:46Z</time>
      </trkpt>
      <trkpt lat="43.60367" lon="3.70408">
        <ele>187.4</ele>
        <time>2022-01-08T14:14:06Z</time>
      </trkpt>
      <trkpt lat="43.60382" lon="3.70421">
        <ele>188.5</ele>
        <time>2022-01-08T14:14:26Z</time>
      </trkpt>
      <trkpt lat="43.60397" lon="3.70435">
        <ele>189.6</ele>
        <time>2022-01-08T14:14:36Z</time>
      </trkpt>
      <trkpt lat="43.60389" lon="3.70442">
        <ele>189</ele>
        <time>2022-01-08T14:15:16Z</time>
      </trkpt>
      <trkpt lat="43.60368" lon="3.70478">
        <ele>189</ele>
        <time>2022-01-08T14:15:36Z</time>
      </trkpt>
      <trkpt lat="43.60358" lon="3.7052">
        <ele>188.6</ele>
        <time>2022-01-08T14:15:46Z</time>
      </trkpt>
      <trkpt lat="43.60342" lon="3.70567">
        <ele>188.4</ele>
        <time>2022-01-08T14:15:56Z</time>
      </trkpt>
      <trkpt lat="43.60326" lon="3.706">
        <ele>185.4</ele>
        <time>2022-01-08T14:16:06Z</time>
      </trkpt>
      <trkpt lat="43.60297" lon="3.70616">
        <ele>186.2</ele>
        <time>2022-01-08T14:16:16Z</time>
      </trkpt>
      <trkpt lat="43.60281" lon="3.70664">
        <ele>181.8</ele>
        <time>2022-01-08T14:16:26Z</time>
      </trkpt>
      <trkpt lat="43.60262" lon="3.70708">
        <ele>179.2</ele>
        <time>2022-01-08T14:16:36Z</time>
      </trkpt>
      <trkpt lat="43.6024" lon="3.70739">
        <ele>180.7</ele>
        <time>2022-01-08T14:16:46Z</time>
      </trkpt>
      <trkpt lat="43.60224" lon="3.70766">
        <ele>182.7</ele>
        <time>2022-01-08T14:16:56Z</time>
      </trkpt>
      <trkpt lat="43.60201" lon="3.70773">
        <ele>186.4</ele>
        <time>2022-01-08T14:17:06Z</time>
      </trkpt>
      <trkpt lat="43.60181" lon="3.70787">
        <ele>187.8</ele>
        <time>2022-01-08T14:17:16Z</time>
      </trkpt>
      <trkpt lat="43.60175" lon="3.70814">
        <ele>186.9</ele>
        <time>2022-01-08T14:17:26Z</time>
      </trkpt>
      <trkpt lat="43.60177" lon="3.70854">
        <ele>181.2</ele>
        <time>2022-01-08T14:17:36Z</time>
      </trkpt>
      <trkpt lat="43.60184" lon="3.709">
        <ele>172.4</ele>
        <time>2022-01-08T14:17:46Z</time>
      </trkpt>
      <trkpt lat="43.60188" lon="3.70938">
        <ele>167.2</ele>
        <time>2022-01-08T14:17:56Z</time>
      </trkpt>
      <trkpt lat="43.60194" lon="3.70982">
        <ele>161.6</ele>
        <time>2022-01-08T14:18:06Z</time>
      </trkpt>
      <trkpt lat="43.60199" lon="3.71027">
        <ele>153.3</ele>
        <time>2022-01-08T14:18:16Z</time>
      </trkpt>
      <trkpt lat="43.60194" lon="3.71065">
        <ele>147.7</ele>
        <time>2022-01-08T14:18:26Z</time>
      </trkpt>
      <trkpt lat="43.60199" lon="3.71098">
        <ele>140.8</ele>
        <time>2022-01-08T14:18:36Z</time>
      </trkpt>
      <trkpt lat="43.60193" lon="3.7112">
        <ele>137.4</ele>
        <time>2022-01-08T14:18:46Z</time>
      </trkpt>
      <trkpt lat="43.60206" lon="3.71123">
        <ele>138.2</ele>
        <time>2022-01-08T14:24:26Z</time>
      </trkpt>
      <trkpt lat="43.60222" lon="3.71117">
        <ele>138.3</ele>
        <time>2022-01-08T14:24:46Z</time>
      </trkpt>
      <trkpt lat="43.60236" lon="3.71112">
        <ele>137.7</ele>
        <time>2022-01-08T14:24:56Z</time>
      </trkpt>
      <trkpt lat="43.60252" lon="3.71112">
        <ele>138.4</ele>
        <time>2022-01-08T14:25:06Z</time>
      </trkpt>
      <trkpt lat="43.60272" lon="3.71111">
        <ele>139.6</ele>
        <time>2022-01-08T14:25:16Z</time>
      </trkpt>
      <trkpt lat="43.6029" lon="3.71108">
        <ele>140.6</ele>
        <time>2022-01-08T14:25:26Z</time>
      </trkpt>
      <trkpt lat="43.60306" lon="3.71105">
        <ele>141.4</ele>
        <time>2022-01-08T14:25:36Z</time>
      </trkpt>
      <trkpt lat="43.60321" lon="3.71103">
        <ele>142.1</ele>
        <time>2022-01-08T14:25:46Z</time>
      </trkpt>
      <trkpt lat="43.60336" lon="3.71102">
        <ele>142.7</ele>
        <time>2022-01-08T14:25:56Z</time>
      </trkpt>
      <trkpt lat="43.60352" lon="3.71102">
        <ele>142.9</ele>
        <time>2022-01-08T14:26:06Z</time>
      </trkpt>
      <trkpt lat="43.60368" lon="3.71104">
        <ele>143.3</ele>
        <time>2022-01-08T14:26:16Z</time>
      </trkpt>
      <trkpt lat="43.60386" lon="3.71106">
        <ele>143.6</ele>
        <time>2022-01-08T14:26:26Z</time>
      </trkpt>
      <trkpt lat="43.60405" lon="3.71109">
        <ele>144.4</ele>
        <time>2022-01-08T14:26:36Z</time>
      </trkpt>
      <trkpt lat="43.60426" lon="3.71106">
        <ele>144.9</ele>
        <time>2022-01-08T14:26:46Z</time>
      </trkpt>
      <trkpt lat="43.60446" lon="3.71091">
        <ele>144</ele>
        <time>2022-01-08T14:26:56Z</time>
      </trkpt>
      <trkpt lat="43.60461" lon="3.71058">
        <ele>143.9</ele>
        <time>2022-01-08T14:27:06Z</time>
      </trkpt>
      <trkpt lat="43.60482" lon="3.71032">
        <ele>144</ele>
        <time>2022-01-08T14:27:16Z</time>
      </trkpt>
      <trkpt lat="43.605" lon="3.71012">
        <ele>145</ele>
        <time>2022-01-08T14:27:26Z</time>
      </trkpt>
      <trkpt lat="43.60522" lon="3.70999">
        <ele>145</ele>
        <time>2022-01-08T14:27:36Z</time>
      </trkpt>
      <trkpt lat="43.60545" lon="3.71">
        <ele>144.4</ele>
        <time>2022-01-08T14:27:46Z</time>
      </trkpt>
      <trkpt lat="43.60569" lon="3.71003">
        <ele>145.3</ele>
        <time>2022-01-08T14:27:56Z</time>
      </trkpt>
      <trkpt lat="43.60593" lon="3.70991">
        <ele>147</ele>
        <time>2022-01-08T14:28:06Z</time>
      </trkpt>
      <trkpt lat="43.60616" lon="3.70985">
        <ele>147.6</ele>
        <time>2022-01-08T14:28:16Z</time>
      </trkpt>
      <trkpt lat="43.60638" lon="3.70988">
        <ele>148</ele>
        <time>2022-01-08T14:28:26Z</time>
      </trkpt>
      <trkpt lat="43.60659" lon="3.71001">
        <ele>147.4</ele>
        <time>2022-01-08T14:28:36Z</time>
      </trkpt>
      <trkpt lat="43.60679" lon="3.71014">
        <ele>149.2</ele>
        <time>2022-01-08T14:28:46Z</time>
      </trkpt>
      <trkpt lat="43.60696" lon="3.71021">
        <ele>149.7</ele>
        <time>2022-01-08T14:28:56Z</time>
      </trkpt>
      <trkpt lat="43.60711" lon="3.71027">
        <ele>149.4</ele>
        <time>2022-01-08T14:29:06Z</time>
      </trkpt>
      <trkpt lat="43.6073" lon="3.71029">
        <ele>149.8</ele>
        <time>2022-01-08T14:29:16Z</time>
      </trkpt>
      <trkpt lat="43.60752" lon="3.71038">
        <ele>152.4</ele>
        <time>2022-01-08T14:29:26Z</time>
      </trkpt>
      <trkpt lat="43.60764" lon="3.71042">
        <ele>152.3</ele>
        <time>2022-01-08T14:29:36Z</time>
      </trkpt>
      <trkpt lat="43.60782" lon="3.7103">
        <ele>151.2</ele>
        <time>2022-01-08T14:33:46Z</time>
      </trkpt>
      <trkpt lat="43.60802" lon="3.71012">
        <ele>151.8</ele>
        <time>2022-01-08T14:34:06Z</time>
      </trkpt>
      <trkpt lat="43.60827" lon="3.70998">
        <ele>153.5</ele>
        <time>2022-01-08T14:34:16Z</time>
      </trkpt>
      <trkpt lat="43.60853" lon="3.70985">
        <ele>154.1</ele>
        <time>2022-01-08T14:34:26Z</time>
      </trkpt>
      <trkpt lat="43.60874" lon="3.70975">
        <ele>154.8</ele>
        <time>2022-01-08T14:34:36Z</time>
      </trkpt>
      <trkpt lat="43.60897" lon="3.70964">
        <ele>157</ele>
        <time>2022-01-08T14:34:46Z</time>
      </trkpt>
      <trkpt lat="43.60922" lon="3.70957">
        <ele>158.3</ele>
        <time>2022-01-08T14:34:56Z</time>
      </trkpt>
      <trkpt lat="43.60947" lon="3.70947">
        <ele>158.7</ele>
        <time>2022-01-08T14:35:06Z</time>
      </trkpt>
      <trkpt lat="43.60973" lon="3.70935">
        <ele>160</ele>
        <time>2022-01-08T14:35:16Z</time>
      </trkpt>
      <trkpt lat="43.60997" lon="3.70931">
        <ele>160.4</ele>
        <time>2022-01-08T14:35:26Z</time>
      </trkpt>
      <trkpt lat="43.61025" lon="3.70936">
        <ele>161.1</ele>
        <time>2022-01-08T14:35:36Z</time>
      </trkpt>
      <trkpt lat="43.6105" lon="3.70945">
        <ele>161.3</ele>
        <time>2022-01-08T14:35:46Z</time>
      </trkpt>
      <trkpt lat="43.61079" lon="3.70953">
        <ele>162.6</ele>
        <time>2022-01-08T14:35:56Z</time>
      </trkpt>
      <trkpt lat="43.61106" lon="3.70957">
        <ele>163.8</ele>
        <time>2022-01-08T14:36:06Z</time>
      </trkpt>
      <trkpt lat="43.61128" lon="3.70965">
        <ele>165.1</ele>
        <time>2022-01-08T14:36:16Z</time>
      </trkpt>
      <trkpt lat="43.6115" lon="3.70967">
        <ele>166.4</ele>
        <time>2022-01-08T14:36:26Z</time>
      </trkpt>
      <trkpt lat="43.6117" lon="3.70965">
        <ele>167.9</ele>
        <time>2022-01-08T14:36:36Z</time>
      </trkpt>
      <trkpt lat="43.61193" lon="3.70965">
        <ele>168.7</ele>
        <time>2022-01-08T14:36:46Z</time>
      </trkpt>
      <trkpt lat="43.61214" lon="3.70964">
        <ele>170.1</ele>
        <time>2022-01-08T14:36:56Z</time>
      </trkpt>
      <trkpt lat="43.61235" lon="3.70965">
        <ele>171.3</ele>
        <time>2022-01-08T14:37:06Z</time>
      </trkpt>
      <trkpt lat="43.61256" lon="3.70969">
        <ele>172.5</ele>
        <time>2022-01-08T14:37:16Z</time>
      </trkpt>
      <trkpt lat="43.61276" lon="3.70968">
        <ele>173.7</ele>
        <time>2022-01-08T14:37:26Z</time>
      </trkpt>
      <trkpt lat="43.61294" lon="3.70954">
        <ele>175.1</ele>
        <time>2022-01-08T14:37:36Z</time>
      </trkpt>
      <trkpt lat="43.6131" lon="3.70937">
        <ele>176.6</ele>
        <time>2022-01-08T14:37:46Z</time>
      </trkpt>
      <trkpt lat="43.61319" lon="3.70911">
        <ele>177.6</ele>
        <time>2022-01-08T14:37:56Z</time>
      </trkpt>
      <trkpt lat="43.61316" lon="3.70881">
        <ele>178.3</ele>
        <time>2022-01-08T14:38:06Z</time>
      </trkpt>
      <trkpt lat="43.61334" lon="3.70877">
        <ele>179.9</ele>
        <time>2022-01-08T14:38:16Z</time>
      </trkpt>
      <trkpt lat="43.61351" lon="3.70889">
        <ele>180.9</ele>
        <time>2022-01-08T14:38:26Z</time>
      </trkpt>
      <trkpt lat="43.61364" lon="3.70875">
        <ele>182.8</ele>
        <time>2022-01-08T14:38:36Z</time>
      </trkpt>
      <trkpt lat="43.61376" lon="3.70861">
        <ele>184.6</ele>
        <time>2022-01-08T14:38:46Z</time>
      </trkpt>
      <trkpt lat="43.61387" lon="3.7085">
        <ele>186.2</ele>
        <time>2022-01-08T14:38:56Z</time>
      </trkpt>
      <trkpt lat="43.61396" lon="3.70835">
        <ele>187.7</ele>
        <time>2022-01-08T14:39:06Z</time>
      </trkpt>
      <trkpt lat="43.61405" lon="3.70821">
        <ele>189.8</ele>
        <time>2022-01-08T14:39:16Z</time>
      </trkpt>
      <trkpt lat="43.61413" lon="3.70806">
        <ele>191.7</ele>
        <time>2022-01-08T14:39:26Z</time>
      </trkpt>
      <trkpt lat="43.61422" lon="3.70792">
        <ele>192.7</ele>
        <time>2022-01-08T14:39:36Z</time>
      </trkpt>
      <trkpt lat="43.61432" lon="3.7078">
        <ele>193.5</ele>
        <time>2022-01-08T14:39:46Z</time>
      </trkpt>
      <trkpt lat="43.61442" lon="3.70766">
        <ele>194.3</ele>
        <time>2022-01-08T14:39:56Z</time>
      </trkpt>
      <trkpt lat="43.61453" lon="3.70753">
        <ele>194.9</ele>
        <time>2022-01-08T14:40:06Z</time>
      </trkpt>
      <trkpt lat="43.61464" lon="3.7074">
        <ele>195.3</ele>
        <time>2022-01-08T14:40:16Z</time>
      </trkpt>
      <trkpt lat="43.61475" lon="3.70725">
        <ele>195.9</ele>
        <time>2022-01-08T14:40:26Z</time>
      </trkpt>
      <trkpt lat="43.61488" lon="3.70708">
        <ele>196</ele>
        <time>2022-01-08T14:40:36Z</time>
      </trkpt>
      <trkpt lat="43.61504" lon="3.70688">
        <ele>196</ele>
        <time>2022-01-08T14:40:46Z</time>
      </trkpt>
      <trkpt lat="43.6152" lon="3.70669">
        <ele>195.3</ele>
        <time>2022-01-08T14:40:56Z</time>
      </trkpt>
      <trkpt lat="43.61536" lon="3.70649">
        <ele>194.4</ele>
        <time>2022-01-08T14:41:06Z</time>
      </trkpt>
      <trkpt lat="43.61554" lon="3.70627">
        <ele>193.6</ele>
        <time>2022-01-08T14:41:16Z</time>
      </trkpt>
      <trkpt lat="43.61574" lon="3.70601">
        <ele>192.5</ele>
        <time>2022-01-08T14:41:26Z</time>
      </trkpt>
      <trkpt lat="43.61596" lon="3.70575">
        <ele>191.5</ele>
        <time>2022-01-08T14:41:36Z</time>
      </trkpt>
      <trkpt lat="43.61619" lon="3.70551">
        <ele>191.1</ele>
        <time>2022-01-08T14:41:46Z</time>
      </trkpt>
      <trkpt lat="43.61646" lon="3.70536">
        <ele>191.5</ele>
        <time>2022-01-08T14:41:56Z</time>
      </trkpt>
      <trkpt lat="43.61675" lon="3.7052">
        <ele>192</ele>
        <time>2022-01-08T14:42:06Z</time>
      </trkpt>
      <trkpt lat="43.61703" lon="3.70504">
        <ele>192</ele>
        <time>2022-01-08T14:42:16Z</time>
      </trkpt>
      <trkpt lat="43.61734" lon="3.70482">
        <ele>191.4</ele>
        <time>2022-01-08T14:42:26Z</time>
      </trkpt>
      <trkpt lat="43.61768" lon="3.70459">
        <ele>190.8</ele>
        <time>2022-01-08T14:42:36Z</time>
      </trkpt>
      <trkpt lat="43.61807" lon="3.70431">
        <ele>190.4</ele>
        <time>2022-01-08T14:42:46Z</time>
      </trkpt>
      <trkpt lat="43.6184" lon="3.70386">
        <ele>189.6</ele>
        <time>2022-01-08T14:42:56Z</time>
      </trkpt>
      <trkpt lat="43.61869" lon="3.70339">
        <ele>188.1</ele>
        <time>2022-01-08T14:43:06Z</time>
      </trkpt>
      <trkpt lat="43.61897" lon="3.70276">
        <ele>183.8</ele>
        <time>2022-01-08T14:43:16Z</time>
      </trkpt>
      <trkpt lat="43.61927" lon="3.70209">
        <ele>180.3</ele>
        <time>2022-01-08T14:43:26Z</time>
      </trkpt>
      <trkpt lat="43.61953" lon="3.70146">
        <ele>179.2</ele>
        <time>2022-01-08T14:43:36Z</time>
      </trkpt>
      <trkpt lat="43.61977" lon="3.70092">
        <ele>177.6</ele>
        <time>2022-01-08T14:43:46Z</time>
      </trkpt>
      <trkpt lat="43.61998" lon="3.70036">
        <ele>173</ele>
        <time>2022-01-08T14:43:56Z</time>
      </trkpt>
      <trkpt lat="43.62022" lon="3.70039">
        <ele>171.6</ele>
        <time>2022-01-08T14:44:06Z</time>
      </trkpt>
      <trkpt lat="43.62051" lon="3.70028">
        <ele>170</ele>
        <time>2022-01-08T14:44:16Z</time>
      </trkpt>
      <trkpt lat="43.62087" lon="3.70018">
        <ele>168.2</ele>
        <time>2022-01-08T14:44:26Z</time>
      </trkpt>
      <trkpt lat="43.62127" lon="3.70003">
        <ele>166.3</ele>
        <time>2022-01-08T14:44:36Z</time>
      </trkpt>
      <trkpt lat="43.62175" lon="3.69982">
        <ele>164.1</ele>
        <time>2022-01-08T14:44:46Z</time>
      </trkpt>
      <trkpt lat="43.62235" lon="3.69957">
        <ele>163.1</ele>
        <time>2022-01-08T14:44:56Z</time>
      </trkpt>
      <trkpt lat="43.62289" lon="3.69932">
        <ele>162.8</ele>
        <time>2022-01-08T14:45:06Z</time>
      </trkpt>
      <trkpt lat="43.62337" lon="3.69921">
        <ele>161</ele>
        <time>2022-01-08T14:45:16Z</time>
      </trkpt>
      <trkpt lat="43.62396" lon="3.69896">
        <ele>155.9</ele>
        <time>2022-01-08T14:45:26Z</time>
      </trkpt>
      <trkpt lat="43.6245" lon="3.69871">
        <ele>152.7</ele>
        <time>2022-01-08T14:45:36Z</time>
      </trkpt>
      <trkpt lat="43.62494" lon="3.6991">
        <ele>153.2</ele>
        <time>2022-01-08T14:45:46Z</time>
      </trkpt>
      <trkpt lat="43.62519" lon="3.69951">
        <ele>156</ele>
        <time>2022-01-08T14:45:56Z</time>
      </trkpt>
      <trkpt lat="43.62541" lon="3.69983">
        <ele>156.5</ele>
        <time>2022-01-08T14:46:06Z</time>
      </trkpt>
      <trkpt lat="43.62556" lon="3.7001">
        <ele>156</ele>
        <time>2022-01-08T14:46:16Z</time>
      </trkpt>
      <trkpt lat="43.62579" lon="3.70041">
        <ele>154.4</ele>
        <time>2022-01-08T14:46:26Z</time>
      </trkpt>
      <trkpt lat="43.62611" lon="3.70073">
        <ele>151.4</ele>
        <time>2022-01-08T14:46:36Z</time>
      </trkpt>
      <trkpt lat="43.62634" lon="3.70086">
        <ele>148.6</ele>
        <time>2022-01-08T14:46:46Z</time>
      </trkpt>
      <trkpt lat="43.62648" lon="3.70094">
        <ele>147.7</ele>
        <time>2022-01-08T14:46:56Z</time>
      </trkpt>
      <trkpt lat="43.62673" lon="3.70124">
        <ele>146.4</ele>
        <time>2022-01-08T14:47:06Z</time>
      </trkpt>
      <trkpt lat="43.62684" lon="3.70158">
        <ele>146.4</ele>
        <time>2022-01-08T14:47:16Z</time>
      </trkpt>
      <trkpt lat="43.62678" lon="3.70194">
        <ele>146.2</ele>
        <time>2022-01-08T14:47:26Z</time>
      </trkpt>
      <trkpt lat="43.6267" lon="3.70232">
        <ele>146.5</ele>
        <time>2022-01-08T14:47:36Z</time>
      </trkpt>
      <trkpt lat="43.62663" lon="3.70271">
        <ele>146.3</ele>
        <time>2022-01-08T14:47:46Z</time>
      </trkpt>
      <trkpt lat="43.62655" lon="3.70309">
        <ele>145.8</ele>
        <time>2022-01-08T14:47:56Z</time>
      </trkpt>
      <trkpt lat="43.62645" lon="3.70349">
        <ele>146.7</ele>
        <time>2022-01-08T14:48:06Z</time>
      </trkpt>
      <trkpt lat="43.62638" lon="3.7039">
        <ele>148</ele>
        <time>2022-01-08T14:48:16Z</time>
      </trkpt>
      <trkpt lat="43.62634" lon="3.70429">
        <ele>148.7</ele>
        <time>2022-01-08T14:48:26Z</time>
      </trkpt>
      <trkpt lat="43.62624" lon="3.7047">
        <ele>150</ele>
        <time>2022-01-08T14:48:36Z</time>
      </trkpt>
      <trkpt lat="43.62616" lon="3.70501">
        <ele>150.8</ele>
        <time>2022-01-08T14:48:46Z</time>
      </trkpt>
      <trkpt lat="43.62638" lon="3.70518">
        <ele>150.6</ele>
        <time>2022-01-08T14:49:16Z</time>
      </trkpt>
      <trkpt lat="43.62646" lon="3.70553">
        <ele>151.3</ele>
        <time>2022-01-08T14:49:36Z</time>
      </trkpt>
      <trkpt lat="43.62655" lon="3.70583">
        <ele>152.6</ele>
        <time>2022-01-08T14:49:46Z</time>
      </trkpt>
      <trkpt lat="43.62641" lon="3.70541">
        <ele>151.1</ele>
        <time>2022-01-08T14:50:16Z</time>
      </trkpt>
      <trkpt lat="43.6264" lon="3.70499">
        <ele>150</ele>
        <time>2022-01-08T14:50:36Z</time>
      </trkpt>
      <trkpt lat="43.62666" lon="3.70479">
        <ele>150.2</ele>
        <time>2022-01-08T14:50:46Z</time>
      </trkpt>
      <trkpt lat="43.62696" lon="3.7046">
        <ele>150.6</ele>
        <time>2022-01-08T14:50:56Z</time>
      </trkpt>
      <trkpt lat="43.62727" lon="3.7044">
        <ele>149.9</ele>
        <time>2022-01-08T14:51:06Z</time>
      </trkpt>
      <trkpt lat="43.6276" lon="3.70419">
        <ele>149.6</ele>
        <time>2022-01-08T14:51:16Z</time>
      </trkpt>
      <trkpt lat="43.62793" lon="3.70397">
        <ele>145.9</ele>
        <time>2022-01-08T14:51:26Z</time>
      </trkpt>
      <trkpt lat="43.6283" lon="3.70374">
        <ele>146.2</ele>
        <time>2022-01-08T14:51:36Z</time>
      </trkpt>
      <trkpt lat="43.62877" lon="3.70347">
        <ele>143.6</ele>
        <time>2022-01-08T14:51:46Z</time>
      </trkpt>
      <trkpt lat="43.62934" lon="3.70325">
        <ele>139.5</ele>
        <time>2022-01-08T14:51:56Z</time>
      </trkpt>
      <trkpt lat="43.63004" lon="3.70313">
        <ele>137.1</ele>
        <time>2022-01-08T14:52:06Z</time>
      </trkpt>
      <trkpt lat="43.63067" lon="3.70313">
        <ele>134.9</ele>
        <time>2022-01-08T14:52:16Z</time>
      </trkpt>
      <trkpt lat="43.63111" lon="3.70313">
        <ele>134.3</ele>
        <time>2022-01-08T14:52:26Z</time>
      </trkpt>
      <trkpt lat="43.63123" lon="3.7029">
        <ele>132.9</ele>
        <time>2022-01-08T14:52:36Z</time>
      </trkpt>
      <trkpt lat="43.63111" lon="3.70238">
        <ele>134</ele>
        <time>2022-01-08T14:52:46Z</time>
      </trkpt>
      <trkpt lat="43.63099" lon="3.70188">
        <ele>133.9</ele>
        <time>2022-01-08T14:52:56Z</time>
      </trkpt>
      <trkpt lat="43.63088" lon="3.70139">
        <ele>133.8</ele>
        <time>2022-01-08T14:53:06Z</time>
      </trkpt>
      <trkpt lat="43.6312" lon="3.70132">
        <ele>132.2</ele>
        <time>2022-01-08T14:53:16Z</time>
      </trkpt>
      <trkpt lat="43.63162" lon="3.70087">
        <ele>130</ele>
        <time>2022-01-08T14:53:26Z</time>
      </trkpt>
      <trkpt lat="43.63173" lon="3.70033">
        <ele>130.7</ele>
        <time>2022-01-08T14:53:36Z</time>
      </trkpt>
      <trkpt lat="43.63191" lon="3.70017">
        <ele>132.6</ele>
        <time>2022-01-08T14:53:46Z</time>
      </trkpt>
      <trkpt lat="43.63208" lon="3.70002">
        <ele>134.4</ele>
        <time>2022-01-08T14:53:56Z</time>
      </trkpt>
      <trkpt lat="43.63224" lon="3.69989">
        <ele>135.8</ele>
        <time>2022-01-08T14:54:06Z</time>
      </trkpt>
      <trkpt lat="43.63238" lon="3.69971">
        <ele>137.2</ele>
        <time>2022-01-08T14:54:16Z</time>
      </trkpt>
      <trkpt lat="43.6325" lon="3.6995">
        <ele>138.2</ele>
        <time>2022-01-08T14:54:26Z</time>
      </trkpt>
      <trkpt lat="43.63264" lon="3.69935">
        <ele>138.7</ele>
        <time>2022-01-08T14:54:36Z</time>
      </trkpt>
      <trkpt lat="43.63281" lon="3.69927">
        <ele>139.7</ele>
        <time>2022-01-08T14:54:46Z</time>
      </trkpt>
      <trkpt lat="43.633" lon="3.69914">
        <ele>141.3</ele>
        <time>2022-01-08T14:54:56Z</time>
      </trkpt>
      <trkpt lat="43.63319" lon="3.69897">
        <ele>143.1</ele>
        <time>2022-01-08T14:55:06Z</time>
      </trkpt>
      <trkpt lat="43.63339" lon="3.69892">
        <ele>144.8</ele>
        <time>2022-01-08T14:55:16Z</time>
      </trkpt>
      <trkpt lat="43.63357" lon="3.69903">
        <ele>144.6</ele>
        <time>2022-01-08T14:55:26Z</time>
      </trkpt>
      <trkpt lat="43.63355" lon="3.69938">
        <ele>145.2</ele>
        <time>2022-01-08T14:55:36Z</time>
      </trkpt>
      <trkpt lat="43.63358" lon="3.69969">
        <ele>145.9</ele>
        <time>2022-01-08T14:55:46Z</time>
      </trkpt>
      <trkpt lat="43.63355" lon="3.70007">
        <ele>146.5</ele>
        <time>2022-01-08T14:55:56Z</time>
      </trkpt>
      <trkpt lat="43.63355" lon="3.70048">
        <ele>147.2</ele>
        <time>2022-01-08T14:56:06Z</time>
      </trkpt>
      <trkpt lat="43.63356" lon="3.70089">
        <ele>148.4</ele>
        <time>2022-01-08T14:56:16Z</time>
      </trkpt>
      <trkpt lat="43.63359" lon="3.70127">
        <ele>150.1</ele>
        <time>2022-01-08T14:56:26Z</time>
      </trkpt>
      <trkpt lat="43.63361" lon="3.70165">
        <ele>151</ele>
        <time>2022-01-08T14:56:36Z</time>
      </trkpt>
      <trkpt lat="43.6336" lon="3.70205">
        <ele>152.4</ele>
        <time>2022-01-08T14:56:46Z</time>
      </trkpt>
      <trkpt lat="43.63351" lon="3.70242">
        <ele>152.6</ele>
        <time>2022-01-08T14:56:56Z</time>
      </trkpt>
      <trkpt lat="43.63358" lon="3.70279">
        <ele>153.8</ele>
        <time>2022-01-08T14:57:06Z</time>
      </trkpt>
      <trkpt lat="43.63363" lon="3.70305">
        <ele>154.1</ele>
        <time>2022-01-08T14:57:16Z</time>
      </trkpt>
      <trkpt lat="43.63369" lon="3.70323">
        <ele>154.3</ele>
        <time>2022-01-08T14:57:26Z</time>
      </trkpt>
      <trkpt lat="43.63364" lon="3.70347">
        <ele>154.5</ele>
        <time>2022-01-08T14:57:36Z</time>
      </trkpt>
      <trkpt lat="43.6336" lon="3.70379">
        <ele>155</ele>
        <time>2022-01-08T14:57:46Z</time>
      </trkpt>
      <trkpt lat="43.63358" lon="3.70422">
        <ele>154.7</ele>
        <time>2022-01-08T14:57:56Z</time>
      </trkpt>
      <trkpt lat="43.63364" lon="3.70463">
        <ele>154</ele>
        <time>2022-01-08T14:58:06Z</time>
      </trkpt>
      <trkpt lat="43.63372" lon="3.70495">
        <ele>153.5</ele>
        <time>2022-01-08T14:58:16Z</time>
      </trkpt>
      <trkpt lat="43.63377" lon="3.70536">
        <ele>152.7</ele>
        <time>2022-01-08T14:58:26Z</time>
      </trkpt>
      <trkpt lat="43.63386" lon="3.70588">
        <ele>151</ele>
        <time>2022-01-08T14:58:36Z</time>
      </trkpt>
      <trkpt lat="43.63409" lon="3.70624">
        <ele>151.6</ele>
        <time>2022-01-08T14:58:46Z</time>
      </trkpt>
      <trkpt lat="43.63413" lon="3.70673">
        <ele>151.7</ele>
        <time>2022-01-08T14:58:56Z</time>
      </trkpt>
      <trkpt lat="43.63422" lon="3.70718">
        <ele>152.2</ele>
        <time>2022-01-08T14:59:06Z</time>
      </trkpt>
      <trkpt lat="43.6343" lon="3.70762">
        <ele>152.5</ele>
        <time>2022-01-08T14:59:16Z</time>
      </trkpt>
      <trkpt lat="43.63438" lon="3.70812">
        <ele>152.8</ele>
        <time>2022-01-08T14:59:26Z</time>
      </trkpt>
      <trkpt lat="43.63446" lon="3.70865">
        <ele>152.9</ele>
        <time>2022-01-08T14:59:36Z</time>
      </trkpt>
      <trkpt lat="43.63471" lon="3.70894">
        <ele>152.8</ele>
        <time>2022-01-08T14:59:46Z</time>
      </trkpt>
      <trkpt lat="43.63503" lon="3.7091">
        <ele>152.3</ele>
        <time>2022-01-08T14:59:56Z</time>
      </trkpt>
      <trkpt lat="43.63533" lon="3.709">
        <ele>153.2</ele>
        <time>2022-01-08T15:00:06Z</time>
      </trkpt>
      <trkpt lat="43.63554" lon="3.70869">
        <ele>154.7</ele>
        <time>2022-01-08T15:00:16Z</time>
      </trkpt>
      <trkpt lat="43.63572" lon="3.70852">
        <ele>155.3</ele>
        <time>2022-01-08T15:00:26Z</time>
      </trkpt>
      <trkpt lat="43.63576" lon="3.70898">
        <ele>154</ele>
        <time>2022-01-08T15:00:36Z</time>
      </trkpt>
      <trkpt lat="43.63586" lon="3.70945">
        <ele>153.8</ele>
        <time>2022-01-08T15:00:46Z</time>
      </trkpt>
      <trkpt lat="43.63593" lon="3.70997">
        <ele>154.3</ele>
        <time>2022-01-08T15:00:56Z</time>
      </trkpt>
      <trkpt lat="43.63617" lon="3.71019">
        <ele>154.8</ele>
        <time>2022-01-08T15:01:06Z</time>
      </trkpt>
      <trkpt lat="43.63617" lon="3.71044">
        <ele>154.2</ele>
        <time>2022-01-08T15:01:16Z</time>
      </trkpt>
      <trkpt lat="43.63611" lon="3.7107">
        <ele>154</ele>
        <time>2022-01-08T15:01:26Z</time>
      </trkpt>
      <trkpt lat="43.63611" lon="3.71121">
        <ele>154</ele>
        <time>2022-01-08T15:01:36Z</time>
      </trkpt>
      <trkpt lat="43.63616" lon="3.71176">
        <ele>152.8</ele>
        <time>2022-01-08T15:01:46Z</time>
      </trkpt>
      <trkpt lat="43.63633" lon="3.71225">
        <ele>151.9</ele>
        <time>2022-01-08T15:01:56Z</time>
      </trkpt>
      <trkpt lat="43.63657" lon="3.71278">
        <ele>150.6</ele>
        <time>2022-01-08T15:02:06Z</time>
      </trkpt>
      <trkpt lat="43.63686" lon="3.71324">
        <ele>149.4</ele>
        <time>2022-01-08T15:02:16Z</time>
      </trkpt>
      <trkpt lat="43.63699" lon="3.71374">
        <ele>147</ele>
        <time>2022-01-08T15:02:26Z</time>
      </trkpt>
      <trkpt lat="43.63681" lon="3.71418">
        <ele>146</ele>
        <time>2022-01-08T15:02:36Z</time>
      </trkpt>
      <trkpt lat="43.63655" lon="3.71463">
        <ele>146.6</ele>
        <time>2022-01-08T15:02:46Z</time>
      </trkpt>
      <trkpt lat="43.63628" lon="3.71503">
        <ele>148.4</ele>
        <time>2022-01-08T15:02:56Z</time>
      </trkpt>
      <trkpt lat="43.63606" lon="3.71541">
        <ele>149.5</ele>
        <time>2022-01-08T15:03:06Z</time>
      </trkpt>
      <trkpt lat="43.63584" lon="3.71576">
        <ele>150.7</ele>
        <time>2022-01-08T15:03:16Z</time>
      </trkpt>
      <trkpt lat="43.6357" lon="3.71615">
        <ele>150.7</ele>
        <time>2022-01-08T15:03:26Z</time>
      </trkpt>
      <trkpt lat="43.63556" lon="3.71662">
        <ele>151</ele>
        <time>2022-01-08T15:03:36Z</time>
      </trkpt>
      <trkpt lat="43.63544" lon="3.71707">
        <ele>150.2</ele>
        <time>2022-01-08T15:03:46Z</time>
      </trkpt>
      <trkpt lat="43.63534" lon="3.71752">
        <ele>151.8</ele>
        <time>2022-01-08T15:03:56Z</time>
      </trkpt>
      <trkpt lat="43.63524" lon="3.71793">
        <ele>152.1</ele>
        <time>2022-01-08T15:04:06Z</time>
      </trkpt>
      <trkpt lat="43.63516" lon="3.71837">
        <ele>153</ele>
        <time>2022-01-08T15:04:16Z</time>
      </trkpt>
      <trkpt lat="43.63516" lon="3.71875">
        <ele>153.8</ele>
        <time>2022-01-08T15:04:26Z</time>
      </trkpt>
      <trkpt lat="43.63539" lon="3.71911">
        <ele>153.1</ele>
        <time>2022-01-08T15:04:36Z</time>
      </trkpt>
      <trkpt lat="43.63538" lon="3.71966">
        <ele>154</ele>
        <time>2022-01-08T15:04:46Z</time>
      </trkpt>
      <trkpt lat="43.63541" lon="3.72013">
        <ele>155.8</ele>
        <time>2022-01-08T15:04:56Z</time>
      </trkpt>
      <trkpt lat="43.63552" lon="3.72059">
        <ele>156.3</ele>
        <time>2022-01-08T15:05:06Z</time>
      </trkpt>
      <trkpt lat="43.63559" lon="3.72093">
        <ele>157.9</ele>
        <time>2022-01-08T15:05:16Z</time>
      </trkpt>
      <trkpt lat="43.63567" lon="3.72107">
        <ele>159.2</ele>
        <time>2022-01-08T15:05:36Z</time>
      </trkpt>
      <trkpt lat="43.63574" lon="3.72128">
        <ele>159.9</ele>
        <time>2022-01-08T15:05:56Z</time>
      </trkpt>
      <trkpt lat="43.63578" lon="3.7215">
        <ele>160.4</ele>
        <time>2022-01-08T15:06:06Z</time>
      </trkpt>
      <trkpt lat="43.63584" lon="3.72174">
        <ele>161.2</ele>
        <time>2022-01-08T15:06:16Z</time>
      </trkpt>
      <trkpt lat="43.63591" lon="3.72203">
        <ele>162</ele>
        <time>2022-01-08T15:06:26Z</time>
      </trkpt>
      <trkpt lat="43.63598" lon="3.72228">
        <ele>162.8</ele>
        <time>2022-01-08T15:06:36Z</time>
      </trkpt>
      <trkpt lat="43.63602" lon="3.72254">
        <ele>164.2</ele>
        <time>2022-01-08T15:06:46Z</time>
      </trkpt>
      <trkpt lat="43.63611" lon="3.72281">
        <ele>165.1</ele>
        <time>2022-01-08T15:06:56Z</time>
      </trkpt>
      <trkpt lat="43.63617" lon="3.72315">
        <ele>166.1</ele>
        <time>2022-01-08T15:07:06Z</time>
      </trkpt>
      <trkpt lat="43.63623" lon="3.72347">
        <ele>166.4</ele>
        <time>2022-01-08T15:07:16Z</time>
      </trkpt>
      <trkpt lat="43.63632" lon="3.72378">
        <ele>166.2</ele>
        <time>2022-01-08T15:07:26Z</time>
      </trkpt>
      <trkpt lat="43.63641" lon="3.72419">
        <ele>167.1</ele>
        <time>2022-01-08T15:07:36Z</time>
      </trkpt>
      <trkpt lat="43.63651" lon="3.72452">
        <ele>168</ele>
        <time>2022-01-08T15:07:46Z</time>
      </trkpt>
      <trkpt lat="43.63659" lon="3.72493">
        <ele>167.7</ele>
        <time>2022-01-08T15:07:56Z</time>
      </trkpt>
      <trkpt lat="43.63665" lon="3.72552">
        <ele>166.1</ele>
        <time>2022-01-08T15:08:06Z</time>
      </trkpt>
      <trkpt lat="43.63665" lon="3.72604">
        <ele>166.1</ele>
        <time>2022-01-08T15:08:16Z</time>
      </trkpt>
      <trkpt lat="43.63664" lon="3.72644">
        <ele>166.1</ele>
        <time>2022-01-08T15:08:26Z</time>
      </trkpt>
      <trkpt lat="43.6366" lon="3.72691">
        <ele>165.4</ele>
        <time>2022-01-08T15:08:36Z</time>
      </trkpt>
      <trkpt lat="43.63664" lon="3.72738">
        <ele>165</ele>
        <time>2022-01-08T15:08:46Z</time>
      </trkpt>
      <trkpt lat="43.63664" lon="3.72791">
        <ele>165</ele>
        <time>2022-01-08T15:08:56Z</time>
      </trkpt>
      <trkpt lat="43.63662" lon="3.72823">
        <ele>164.5</ele>
        <time>2022-01-08T15:09:06Z</time>
      </trkpt>
      <trkpt lat="43.63657" lon="3.72865">
        <ele>164.4</ele>
        <time>2022-01-08T15:09:26Z</time>
      </trkpt>
      <trkpt lat="43.63653" lon="3.72901">
        <ele>165</ele>
        <time>2022-01-08T15:09:36Z</time>
      </trkpt>
      <trkpt lat="43.6365" lon="3.72942">
        <ele>164.8</ele>
        <time>2022-01-08T15:09:46Z</time>
      </trkpt>
      <trkpt lat="43.63645" lon="3.72983">
        <ele>166</ele>
        <time>2022-01-08T15:09:56Z</time>
      </trkpt>
      <trkpt lat="43.63645" lon="3.7302">
        <ele>166.1</ele>
        <time>2022-01-08T15:10:06Z</time>
      </trkpt>
      <trkpt lat="43.6364" lon="3.73059">
        <ele>166.8</ele>
        <time>2022-01-08T15:10:16Z</time>
      </trkpt>
      <trkpt lat="43.63635" lon="3.73096">
        <ele>168.3</ele>
        <time>2022-01-08T15:10:26Z</time>
      </trkpt>
      <trkpt lat="43.6363" lon="3.73122">
        <ele>169</ele>
        <time>2022-01-08T15:10:36Z</time>
      </trkpt>
      <trkpt lat="43.63629" lon="3.73145">
        <ele>169.5</ele>
        <time>2022-01-08T15:10:46Z</time>
      </trkpt>
      <trkpt lat="43.63628" lon="3.73207">
        <ele>166.8</ele>
        <time>2022-01-08T15:10:56Z</time>
      </trkpt>
      <trkpt lat="43.63628" lon="3.73269">
        <ele>169.3</ele>
        <time>2022-01-08T15:11:06Z</time>
      </trkpt>
      <trkpt lat="43.63631" lon="3.73307">
        <ele>169</ele>
        <time>2022-01-08T15:11:16Z</time>
      </trkpt>
      <trkpt lat="43.63643" lon="3.73374">
        <ele>167.7</ele>
        <time>2022-01-08T15:11:26Z</time>
      </trkpt>
      <trkpt lat="43.63646" lon="3.73414">
        <ele>169.6</ele>
        <time>2022-01-08T15:11:36Z</time>
      </trkpt>
      <trkpt lat="43.63647" lon="3.73461">
        <ele>171.2</ele>
        <time>2022-01-08T15:11:46Z</time>
      </trkpt>
      <trkpt lat="43.63651" lon="3.73493">
        <ele>172</ele>
        <time>2022-01-08T15:11:56Z</time>
      </trkpt>
      <trkpt lat="43.63658" lon="3.73537">
        <ele>171.4</ele>
        <time>2022-01-08T15:12:06Z</time>
      </trkpt>
      <trkpt lat="43.63663" lon="3.73593">
        <ele>170.7</ele>
        <time>2022-01-08T15:12:16Z</time>
      </trkpt>
      <trkpt lat="43.63673" lon="3.73638">
        <ele>172.5</ele>
        <time>2022-01-08T15:12:26Z</time>
      </trkpt>
      <trkpt lat="43.63682" lon="3.73683">
        <ele>170.5</ele>
        <time>2022-01-08T15:12:36Z</time>
      </trkpt>
      <trkpt lat="43.63688" lon="3.73758">
        <ele>169</ele>
        <time>2022-01-08T15:12:46Z</time>
      </trkpt>
      <trkpt lat="43.63697" lon="3.73847">
        <ele>165.8</ele>
        <time>2022-01-08T15:12:56Z</time>
      </trkpt>
      <trkpt lat="43.63698" lon="3.73918">
        <ele>166.1</ele>
        <time>2022-01-08T15:13:06Z</time>
      </trkpt>
      <trkpt lat="43.63707" lon="3.73988">
        <ele>163.9</ele>
        <time>2022-01-08T15:13:16Z</time>
      </trkpt>
      <trkpt lat="43.6371" lon="3.74054">
        <ele>162.8</ele>
        <time>2022-01-08T15:13:26Z</time>
      </trkpt>
      <trkpt lat="43.6371" lon="3.74131">
        <ele>162.5</ele>
        <time>2022-01-08T15:13:36Z</time>
      </trkpt>
      <trkpt lat="43.63706" lon="3.74158">
        <ele>164.6</ele>
        <time>2022-01-08T15:13:46Z</time>
      </trkpt>
      <trkpt lat="43.6371" lon="3.74186">
        <ele>164.1</ele>
        <time>2022-01-08T15:13:56Z</time>
      </trkpt>
      <trkpt lat="43.63727" lon="3.74229">
        <ele>163.5</ele>
        <time>2022-01-08T15:14:06Z</time>
      </trkpt>
      <trkpt lat="43.63729" lon="3.74254">
        <ele>165.5</ele>
        <time>2022-01-08T15:14:16Z</time>
      </trkpt>
      <trkpt lat="43.63746" lon="3.7429">
        <ele>163</ele>
        <time>2022-01-08T15:14:26Z</time>
      </trkpt>
      <trkpt lat="43.63747" lon="3.74356">
        <ele>164</ele>
        <time>2022-01-08T15:14:36Z</time>
      </trkpt>
      <trkpt lat="43.63758" lon="3.74387">
        <ele>164.8</ele>
        <time>2022-01-08T15:14:46Z</time>
      </trkpt>
      <trkpt lat="43.63797" lon="3.74395">
        <ele>161.2</ele>
        <time>2022-01-08T15:14:56Z</time>
      </trkpt>
      <trkpt lat="43.6386" lon="3.74391">
        <ele>157.1</ele>
        <time>2022-01-08T15:15:06Z</time>
      </trkpt>
      <trkpt lat="43.63904" lon="3.74379">
        <ele>155.6</ele>
        <time>2022-01-08T15:15:16Z</time>
      </trkpt>
      <trkpt lat="43.63904" lon="3.7444">
        <ele>155</ele>
        <time>2022-01-08T15:15:26Z</time>
      </trkpt>
      <trkpt lat="43.6391" lon="3.74507">
        <ele>154.1</ele>
        <time>2022-01-08T15:15:36Z</time>
      </trkpt>
      <trkpt lat="43.63926" lon="3.74576">
        <ele>153.8</ele>
        <time>2022-01-08T15:15:46Z</time>
      </trkpt>
      <trkpt lat="43.63937" lon="3.74643">
        <ele>152.9</ele>
        <time>2022-01-08T15:15:56Z</time>
      </trkpt>
      <trkpt lat="43.63944" lon="3.74708">
        <ele>153.5</ele>
        <time>2022-01-08T15:16:06Z</time>
      </trkpt>
      <trkpt lat="43.63955" lon="3.74761">
        <ele>153.3</ele>
        <time>2022-01-08T15:16:16Z</time>
      </trkpt>
      <trkpt lat="43.63963" lon="3.74813">
        <ele>153.8</ele>
        <time>2022-01-08T15:16:26Z</time>
      </trkpt>
      <trkpt lat="43.63968" lon="3.7486">
        <ele>153.5</ele>
        <time>2022-01-08T15:16:36Z</time>
      </trkpt>
      <trkpt lat="43.63974" lon="3.74903">
        <ele>153.8</ele>
        <time>2022-01-08T15:16:46Z</time>
      </trkpt>
      <trkpt lat="43.64003" lon="3.74944">
        <ele>151.8</ele>
        <time>2022-01-08T15:16:56Z</time>
      </trkpt>
      <trkpt lat="43.64028" lon="3.74987">
        <ele>151.5</ele>
        <time>2022-01-08T15:17:06Z</time>
      </trkpt>
      <trkpt lat="43.6407" lon="3.75025">
        <ele>148.4</ele>
        <time>2022-01-08T15:17:16Z</time>
      </trkpt>
      <trkpt lat="43.64105" lon="3.75096">
        <ele>145.2</ele>
        <time>2022-01-08T15:17:26Z</time>
      </trkpt>
      <trkpt lat="43.64133" lon="3.7516">
        <ele>144.4</ele>
        <time>2022-01-08T15:17:36Z</time>
      </trkpt>
      <trkpt lat="43.64166" lon="3.75222">
        <ele>143.1</ele>
        <time>2022-01-08T15:17:46Z</time>
      </trkpt>
      <trkpt lat="43.64203" lon="3.75281">
        <ele>140.7</ele>
        <time>2022-01-08T15:17:56Z</time>
      </trkpt>
      <trkpt lat="43.64227" lon="3.75347">
        <ele>138.9</ele>
        <time>2022-01-08T15:18:06Z</time>
      </trkpt>
      <trkpt lat="43.64244" lon="3.75419">
        <ele>138.1</ele>
        <time>2022-01-08T15:18:16Z</time>
      </trkpt>
      <trkpt lat="43.64255" lon="3.75482">
        <ele>137.3</ele>
        <time>2022-01-08T15:18:26Z</time>
      </trkpt>
      <trkpt lat="43.64275" lon="3.75543">
        <ele>136.8</ele>
        <time>2022-01-08T15:18:36Z</time>
      </trkpt>
      <trkpt lat="43.64294" lon="3.75599">
        <ele>136.3</ele>
        <time>2022-01-08T15:18:46Z</time>
      </trkpt>
      <trkpt lat="43.64309" lon="3.75645">
        <ele>135.2</ele>
        <time>2022-01-08T15:18:56Z</time>
      </trkpt>
      <trkpt lat="43.64322" lon="3.7569">
        <ele>135.6</ele>
        <time>2022-01-08T15:19:06Z</time>
      </trkpt>
      <trkpt lat="43.64323" lon="3.75716">
        <ele>135.1</ele>
        <time>2022-01-08T15:19:16Z</time>
      </trkpt>
      <trkpt lat="43.64318" lon="3.75751">
        <ele>135</ele>
        <time>2022-01-08T15:19:26Z</time>
      </trkpt>
      <trkpt lat="43.6433" lon="3.75806">
        <ele>135.9</ele>
        <time>2022-01-08T15:19:36Z</time>
      </trkpt>
      <trkpt lat="43.64341" lon="3.75864">
        <ele>136.6</ele>
        <time>2022-01-08T15:19:46Z</time>
      </trkpt>
      <trkpt lat="43.64354" lon="3.75923">
        <ele>137.3</ele>
        <time>2022-01-08T15:19:56Z</time>
      </trkpt>
      <trkpt lat="43.64367" lon="3.75982">
        <ele>138.5</ele>
        <time>2022-01-08T15:20:06Z</time>
      </trkpt>
      <trkpt lat="43.64378" lon="3.76041">
        <ele>139.4</ele>
        <time>2022-01-08T15:20:16Z</time>
      </trkpt>
      <trkpt lat="43.64388" lon="3.76095">
        <ele>138.1</ele>
        <time>2022-01-08T15:20:26Z</time>
      </trkpt>
      <trkpt lat="43.64404" lon="3.7615">
        <ele>138.5</ele>
        <time>2022-01-08T15:20:36Z</time>
      </trkpt>
      <trkpt lat="43.64425" lon="3.76217">
        <ele>137.1</ele>
        <time>2022-01-08T15:20:46Z</time>
      </trkpt>
      <trkpt lat="43.64443" lon="3.76302">
        <ele>135.1</ele>
        <time>2022-01-08T15:20:56Z</time>
      </trkpt>
      <trkpt lat="43.64465" lon="3.76388">
        <ele>133.8</ele>
        <time>2022-01-08T15:21:06Z</time>
      </trkpt>
      <trkpt lat="43.64478" lon="3.7647">
        <ele>133.6</ele>
        <time>2022-01-08T15:21:16Z</time>
      </trkpt>
      <trkpt lat="43.64485" lon="3.76549">
        <ele>133.2</ele>
        <time>2022-01-08T15:21:26Z</time>
      </trkpt>
      <trkpt lat="43.645" lon="3.76621">
        <ele>134</ele>
        <time>2022-01-08T15:21:36Z</time>
      </trkpt>
      <trkpt lat="43.64526" lon="3.76668">
        <ele>135.9</ele>
        <time>2022-01-08T15:21:46Z</time>
      </trkpt>
      <trkpt lat="43.64555" lon="3.76708">
        <ele>136</ele>
        <time>2022-01-08T15:21:56Z</time>
      </trkpt>
      <trkpt lat="43.64585" lon="3.76767">
        <ele>133.3</ele>
        <time>2022-01-08T15:22:06Z</time>
      </trkpt>
      <trkpt lat="43.64641" lon="3.76804">
        <ele>132.2</ele>
        <time>2022-01-08T15:22:16Z</time>
      </trkpt>
      <trkpt lat="43.64656" lon="3.76863">
        <ele>133.2</ele>
        <time>2022-01-08T15:22:26Z</time>
      </trkpt>
      <trkpt lat="43.6466" lon="3.76917">
        <ele>133.3</ele>
        <time>2022-01-08T15:22:36Z</time>
      </trkpt>
      <trkpt lat="43.64676" lon="3.76939">
        <ele>135.7</ele>
        <time>2022-01-08T15:22:46Z</time>
      </trkpt>
      <trkpt lat="43.64679" lon="3.76972">
        <ele>136.2</ele>
        <time>2022-01-08T15:22:56Z</time>
      </trkpt>
      <trkpt lat="43.64687" lon="3.7701">
        <ele>137.2</ele>
        <time>2022-01-08T15:23:06Z</time>
      </trkpt>
      <trkpt lat="43.64693" lon="3.77041">
        <ele>138.8</ele>
        <time>2022-01-08T15:23:16Z</time>
      </trkpt>
      <trkpt lat="43.64702" lon="3.77065">
        <ele>140.2</ele>
        <time>2022-01-08T15:23:26Z</time>
      </trkpt>
      <trkpt lat="43.64707" lon="3.77084">
        <ele>141.2</ele>
        <time>2022-01-08T15:23:36Z</time>
      </trkpt>
      <trkpt lat="43.64696" lon="3.77095">
        <ele>139.3</ele>
        <time>2022-01-08T15:23:46Z</time>
      </trkpt>
      <trkpt lat="43.64662" lon="3.77091">
        <ele>134.5</ele>
        <time>2022-01-08T15:23:56Z</time>
      </trkpt>
      <trkpt lat="43.64649" lon="3.77156">
        <ele>131.7</ele>
        <time>2022-01-08T15:24:06Z</time>
      </trkpt>
      <trkpt lat="43.64665" lon="3.77242">
        <ele>126.1</ele>
        <time>2022-01-08T15:24:16Z</time>
      </trkpt>
      <trkpt lat="43.64681" lon="3.77324">
        <ele>119.9</ele>
        <time>2022-01-08T15:24:26Z</time>
      </trkpt>
      <trkpt lat="43.6469" lon="3.77411">
        <ele>113.5</ele>
        <time>2022-01-08T15:24:36Z</time>
      </trkpt>
      <trkpt lat="43.64694" lon="3.77462">
        <ele>109.5</ele>
        <time>2022-01-08T15:24:46Z</time>
      </trkpt>
      <trkpt lat="43.64705" lon="3.77517">
        <ele>107.5</ele>
        <time>2022-01-08T15:24:56Z</time>
      </trkpt>
      <trkpt lat="43.64713" lon="3.77571">
        <ele>105.3</ele>
        <time>2022-01-08T15:25:06Z</time>
      </trkpt>
      <trkpt lat="43.64729" lon="3.77612">
        <ele>104.9</ele>
        <time>2022-01-08T15:25:16Z</time>
      </trkpt>
      <trkpt lat="43.64753" lon="3.77665">
        <ele>105.3</ele>
        <time>2022-01-08T15:25:26Z</time>
      </trkpt>
      <trkpt lat="43.64784" lon="3.77706">
        <ele>106.7</ele>
        <time>2022-01-08T15:25:36Z</time>
      </trkpt>
      <trkpt lat="43.64814" lon="3.77719">
        <ele>105.7</ele>
        <time>2022-01-08T15:25:46Z</time>
      </trkpt>
      <trkpt lat="43.64821" lon="3.77734">
        <ele>106.7</ele>
        <time>2022-01-08T15:25:56Z</time>
      </trkpt>
      <trkpt lat="43.64824" lon="3.77755">
        <ele>109.2</ele>
        <time>2022-01-08T15:26:06Z</time>
      </trkpt>
      <trkpt lat="43.64836" lon="3.77767">
        <ele>110.5</ele>
        <time>2022-01-08T15:26:16Z</time>
      </trkpt>
      <trkpt lat="43.64841" lon="3.77787">
        <ele>113.4</ele>
        <time>2022-01-08T15:26:26Z</time>
      </trkpt>
      <trkpt lat="43.64845" lon="3.77805">
        <ele>115.5</ele>
        <time>2022-01-08T15:26:36Z</time>
      </trkpt>
      <trkpt lat="43.64861" lon="3.7787">
        <ele>104.4</ele>
        <time>2022-01-08T15:26:46Z</time>
      </trkpt>
      <trkpt lat="43.64887" lon="3.77952">
        <ele>98.3</ele>
        <time>2022-01-08T15:26:56Z</time>
      </trkpt>
      <trkpt lat="43.64914" lon="3.78048">
        <ele>95.4</ele>
        <time>2022-01-08T15:27:06Z</time>
      </trkpt>
      <trkpt lat="43.64929" lon="3.7812">
        <ele>98.8</ele>
        <time>2022-01-08T15:27:16Z</time>
      </trkpt>
      <trkpt lat="43.64942" lon="3.78152">
        <ele>97.1</ele>
        <time>2022-01-08T15:27:26Z</time>
      </trkpt>
      <trkpt lat="43.64966" lon="3.78203">
        <ele>92.7</ele>
        <time>2022-01-08T15:27:36Z</time>
      </trkpt>
      <trkpt lat="43.64995" lon="3.78262">
        <ele>87.5</ele>
        <time>2022-01-08T15:27:46Z</time>
      </trkpt>
      <trkpt lat="43.65019" lon="3.78305">
        <ele>84.7</ele>
        <time>2022-01-08T15:27:56Z</time>
      </trkpt>
      <trkpt lat="43.65051" lon="3.78359">
        <ele>81.3</ele>
        <time>2022-01-08T15:28:06Z</time>
      </trkpt>
      <trkpt lat="43.6508" lon="3.78426">
        <ele>78.2</ele>
        <time>2022-01-08T15:28:16Z</time>
      </trkpt>
      <trkpt lat="43.6511" lon="3.78453">
        <ele>75.7</ele>
        <time>2022-01-08T15:28:26Z</time>
      </trkpt>
      <trkpt lat="43.65123" lon="3.78508">
        <ele>73.9</ele>
        <time>2022-01-08T15:28:36Z</time>
      </trkpt>
      <trkpt lat="43.65136" lon="3.78587">
        <ele>74.5</ele>
        <time>2022-01-08T15:28:46Z</time>
      </trkpt>
      <trkpt lat="43.65132" lon="3.78638">
        <ele>75</ele>
        <time>2022-01-08T15:28:56Z</time>
      </trkpt>
      <trkpt lat="43.65138" lon="3.78715">
        <ele>69.6</ele>
        <time>2022-01-08T15:29:06Z</time>
      </trkpt>
      <trkpt lat="43.65142" lon="3.78793">
        <ele>63.8</ele>
        <time>2022-01-08T15:29:16Z</time>
      </trkpt>
      <trkpt lat="43.65147" lon="3.78834">
        <ele>60.7</ele>
        <time>2022-01-08T15:29:26Z</time>
      </trkpt>
      <trkpt lat="43.65122" lon="3.78877">
        <ele>58.5</ele>
        <time>2022-01-08T15:29:36Z</time>
      </trkpt>
      <trkpt lat="43.65089" lon="3.78921">
        <ele>57.6</ele>
        <time>2022-01-08T15:29:46Z</time>
      </trkpt>
      <trkpt lat="43.65068" lon="3.78946">
        <ele>57.1</ele>
        <time>2022-01-08T15:29:56Z</time>
      </trkpt>
      <trkpt lat="43.65046" lon="3.78953">
        <ele>57.8</ele>
        <time>2022-01-08T15:30:06Z</time>
      </trkpt>
      <trkpt lat="43.6502" lon="3.78974">
        <ele>57.9</ele>
        <time>2022-01-08T15:30:16Z</time>
      </trkpt>
      <trkpt lat="43.64996" lon="3.78988">
        <ele>57.7</ele>
        <time>2022-01-08T15:30:26Z</time>
      </trkpt>
      <trkpt lat="43.64972" lon="3.78995">
        <ele>57.9</ele>
        <time>2022-01-08T15:30:36Z</time>
      </trkpt>
      <trkpt lat="43.64944" lon="3.7901">
        <ele>57.3</ele>
        <time>2022-01-08T15:30:46Z</time>
      </trkpt>
      <trkpt lat="43.64928" lon="3.7902">
        <ele>58.1</ele>
        <time>2022-01-08T15:30:56Z</time>
      </trkpt>
      <trkpt lat="43.64911" lon="3.79032">
        <ele>58</ele>
        <time>2022-01-08T15:31:06Z</time>
      </trkpt>
      <trkpt lat="43.64888" lon="3.7905">
        <ele>57.3</ele>
        <time>2022-01-08T15:31:16Z</time>
      </trkpt>
      <trkpt lat="43.64862" lon="3.79073">
        <ele>56.8</ele>
        <time>2022-01-08T15:31:26Z</time>
      </trkpt>
      <trkpt lat="43.64838" lon="3.79093">
        <ele>57.9</ele>
        <time>2022-01-08T15:31:36Z</time>
      </trkpt>
      <trkpt lat="43.64814" lon="3.79119">
        <ele>58.6</ele>
        <time>2022-01-08T15:31:46Z</time>
      </trkpt>
      <trkpt lat="43.64788" lon="3.79138">
        <ele>60.6</ele>
        <time>2022-01-08T15:31:56Z</time>
      </trkpt>
      <trkpt lat="43.6476" lon="3.79155">
        <ele>62.1</ele>
        <time>2022-01-08T15:32:06Z</time>
      </trkpt>
      <trkpt lat="43.64729" lon="3.79179">
        <ele>62.3</ele>
        <time>2022-01-08T15:32:16Z</time>
      </trkpt>
      <trkpt lat="43.647" lon="3.79198">
        <ele>64</ele>
        <time>2022-01-08T15:32:26Z</time>
      </trkpt>
      <trkpt lat="43.647" lon="3.79233">
        <ele>57.5</ele>
        <time>2022-01-08T15:32:36Z</time>
      </trkpt>
      <trkpt lat="43.6469" lon="3.79278">
        <ele>55.2</ele>
        <time>2022-01-08T15:32:46Z</time>
      </trkpt>
      <trkpt lat="43.64663" lon="3.79303">
        <ele>54.8</ele>
        <time>2022-01-08T15:32:56Z</time>
      </trkpt>
      <trkpt lat="43.64652" lon="3.79345">
        <ele>54.6</ele>
        <time>2022-01-08T15:33:06Z</time>
      </trkpt>
      <trkpt lat="43.64635" lon="3.7939">
        <ele>54.6</ele>
        <time>2022-01-08T15:33:16Z</time>
      </trkpt>
      <trkpt lat="43.64609" lon="3.79431">
        <ele>53.9</ele>
        <time>2022-01-08T15:33:26Z</time>
      </trkpt>
      <trkpt lat="43.64599" lon="3.79462">
        <ele>53.8</ele>
        <time>2022-01-08T15:33:36Z</time>
      </trkpt>
      <trkpt lat="43.64587" lon="3.79495">
        <ele>53.1</ele>
        <time>2022-01-08T15:33:46Z</time>
      </trkpt>
      <trkpt lat="43.64573" lon="3.7954">
        <ele>53.6</ele>
        <time>2022-01-08T15:33:56Z</time>
      </trkpt>
      <trkpt lat="43.64563" lon="3.79593">
        <ele>53.5</ele>
        <time>2022-01-08T15:34:06Z</time>
      </trkpt>
      <trkpt lat="43.64544" lon="3.79643">
        <ele>53.3</ele>
        <time>2022-01-08T15:34:16Z</time>
      </trkpt>
      <trkpt lat="43.64522" lon="3.79685">
        <ele>53.7</ele>
        <time>2022-01-08T15:34:26Z</time>
      </trkpt>
      <trkpt lat="43.645" lon="3.79735">
        <ele>53.5</ele>
        <time>2022-01-08T15:34:36Z</time>
      </trkpt>
      <trkpt lat="43.64475" lon="3.7976">
        <ele>53.2</ele>
        <time>2022-01-08T15:34:46Z</time>
      </trkpt>
      <trkpt lat="43.64453" lon="3.79778">
        <ele>53.6</ele>
        <time>2022-01-08T15:34:56Z</time>
      </trkpt>
      <trkpt lat="43.64419" lon="3.79787">
        <ele>53.4</ele>
        <time>2022-01-08T15:35:06Z</time>
      </trkpt>
      <trkpt lat="43.64386" lon="3.79779">
        <ele>53</ele>
        <time>2022-01-08T15:35:16Z</time>
      </trkpt>
      <trkpt lat="43.64346" lon="3.79796">
        <ele>52.8</ele>
        <time>2022-01-08T15:35:26Z</time>
      </trkpt>
      <trkpt lat="43.6431" lon="3.79817">
        <ele>53</ele>
        <time>2022-01-08T15:35:36Z</time>
      </trkpt>
      <trkpt lat="43.6427" lon="3.79832">
        <ele>53.7</ele>
        <time>2022-01-08T15:35:46Z</time>
      </trkpt>
      <trkpt lat="43.64235" lon="3.79854">
        <ele>53</ele>
        <time>2022-01-08T15:35:56Z</time>
      </trkpt>
      <trkpt lat="43.6421" lon="3.79891">
        <ele>52.7</ele>
        <time>2022-01-08T15:39:36Z</time>
      </trkpt>
      <trkpt lat="43.6418" lon="3.79901">
        <ele>52.1</ele>
        <time>2022-01-08T15:39:56Z</time>
      </trkpt>
      <trkpt lat="43.64142" lon="3.79931">
        <ele>52.5</ele>
        <time>2022-01-08T15:40:06Z</time>
      </trkpt>
      <trkpt lat="43.64103" lon="3.79964">
        <ele>53.9</ele>
        <time>2022-01-08T15:40:16Z</time>
      </trkpt>
      <trkpt lat="43.6406" lon="3.79996">
        <ele>52.6</ele>
        <time>2022-01-08T15:40:26Z</time>
      </trkpt>
      <trkpt lat="43.64019" lon="3.80029">
        <ele>53.2</ele>
        <time>2022-01-08T15:40:36Z</time>
      </trkpt>
      <trkpt lat="43.6398" lon="3.80054">
        <ele>52.5</ele>
        <time>2022-01-08T15:40:46Z</time>
      </trkpt>
      <trkpt lat="43.63941" lon="3.80078">
        <ele>53.4</ele>
        <time>2022-01-08T15:40:56Z</time>
      </trkpt>
      <trkpt lat="43.63903" lon="3.80097">
        <ele>52.5</ele>
        <time>2022-01-08T15:41:06Z</time>
      </trkpt>
      <trkpt lat="43.63876" lon="3.8013">
        <ele>55.7</ele>
        <time>2022-01-08T15:41:16Z</time>
      </trkpt>
      <trkpt lat="43.63859" lon="3.80157">
        <ele>56.5</ele>
        <time>2022-01-08T15:41:26Z</time>
      </trkpt>
      <trkpt lat="43.63849" lon="3.80174">
        <ele>56.7</ele>
        <time>2022-01-08T15:41:36Z</time>
      </trkpt>
      <trkpt lat="43.63842" lon="3.80197">
        <ele>56.2</ele>
        <time>2022-01-08T15:41:46Z</time>
      </trkpt>
      <trkpt lat="43.63841" lon="3.80226">
        <ele>56.7</ele>
        <time>2022-01-08T15:41:56Z</time>
      </trkpt>
      <trkpt lat="43.63844" lon="3.80262">
        <ele>56.6</ele>
        <time>2022-01-08T15:42:06Z</time>
      </trkpt>
      <trkpt lat="43.63861" lon="3.80304">
        <ele>57.1</ele>
        <time>2022-01-08T15:42:16Z</time>
      </trkpt>
      <trkpt lat="43.63879" lon="3.80352">
        <ele>57.3</ele>
        <time>2022-01-08T15:42:26Z</time>
      </trkpt>
      <trkpt lat="43.63901" lon="3.80406">
        <ele>57.1</ele>
        <time>2022-01-08T15:42:36Z</time>
      </trkpt>
      <trkpt lat="43.63919" lon="3.8046">
        <ele>56.8</ele>
        <time>2022-01-08T15:42:46Z</time>
      </trkpt>
      <trkpt lat="43.63911" lon="3.80525">
        <ele>54.1</ele>
        <time>2022-01-08T15:42:56Z</time>
      </trkpt>
      <trkpt lat="43.63912" lon="3.80592">
        <ele>51.5</ele>
        <time>2022-01-08T15:43:06Z</time>
      </trkpt>
      <trkpt lat="43.63908" lon="3.80656">
        <ele>50.4</ele>
        <time>2022-01-08T15:43:16Z</time>
      </trkpt>
      <trkpt lat="43.63898" lon="3.80714">
        <ele>49.9</ele>
        <time>2022-01-08T15:43:26Z</time>
      </trkpt>
      <trkpt lat="43.63879" lon="3.80717">
        <ele>48.6</ele>
        <time>2022-01-08T15:43:36Z</time>
      </trkpt>
      <trkpt lat="43.63863" lon="3.8074">
        <ele>48</ele>
        <time>2022-01-08T15:44:36Z</time>
      </trkpt>
      <trkpt lat="43.63857" lon="3.80766">
        <ele>47.8</ele>
        <time>2022-01-08T15:44:56Z</time>
      </trkpt>
      <trkpt lat="43.63844" lon="3.80789">
        <ele>47.5</ele>
        <time>2022-01-08T15:45:06Z</time>
      </trkpt>
      <trkpt lat="43.63837" lon="3.80801">
        <ele>46.6</ele>
        <time>2022-01-08T15:45:16Z</time>
      </trkpt>
      <trkpt lat="43.63819" lon="3.80827">
        <ele>50.2</ele>
        <time>2022-01-08T15:45:26Z</time>
      </trkpt>
      <trkpt lat="43.63792" lon="3.80837">
        <ele>49.6</ele>
        <time>2022-01-08T15:45:46Z</time>
      </trkpt>
      <trkpt lat="43.63754" lon="3.80847">
        <ele>50.5</ele>
        <time>2022-01-08T15:45:56Z</time>
      </trkpt>
      <trkpt lat="43.6372" lon="3.80851">
        <ele>50.2</ele>
        <time>2022-01-08T15:46:06Z</time>
      </trkpt>
      <trkpt lat="43.63684" lon="3.80852">
        <ele>49.1</ele>
        <time>2022-01-08T15:46:16Z</time>
      </trkpt>
      <trkpt lat="43.63653" lon="3.80866">
        <ele>49.7</ele>
        <time>2022-01-08T15:46:26Z</time>
      </trkpt>
      <trkpt lat="43.63623" lon="3.80866">
        <ele>50.9</ele>
        <time>2022-01-08T15:46:36Z</time>
      </trkpt>
      <trkpt lat="43.63596" lon="3.80857">
        <ele>51.1</ele>
        <time>2022-01-08T15:46:46Z</time>
      </trkpt>
      <trkpt lat="43.63569" lon="3.80832">
        <ele>51</ele>
        <time>2022-01-08T15:46:56Z</time>
      </trkpt>
      <trkpt lat="43.63538" lon="3.80798">
        <ele>50.6</ele>
        <time>2022-01-08T15:47:06Z</time>
      </trkpt>
      <trkpt lat="43.63501" lon="3.80776">
        <ele>50.6</ele>
        <time>2022-01-08T15:47:16Z</time>
      </trkpt>
      <trkpt lat="43.63464" lon="3.80784">
        <ele>49.4</ele>
        <time>2022-01-08T15:47:26Z</time>
      </trkpt>
      <trkpt lat="43.63454" lon="3.8083">
        <ele>50.4</ele>
        <time>2022-01-08T15:47:36Z</time>
      </trkpt>
      <trkpt lat="43.63448" lon="3.80878">
        <ele>50.7</ele>
        <time>2022-01-08T15:47:46Z</time>
      </trkpt>
      <trkpt lat="43.63429" lon="3.80921">
        <ele>47.8</ele>
        <time>2022-01-08T15:47:56Z</time>
      </trkpt>
      <trkpt lat="43.63433" lon="3.80975">
        <ele>48.8</ele>
        <time>2022-01-08T15:48:06Z</time>
      </trkpt>
      <trkpt lat="43.63444" lon="3.81034">
        <ele>48.7</ele>
        <time>2022-01-08T15:48:16Z</time>
      </trkpt>
      <trkpt lat="43.63454" lon="3.81096">
        <ele>49.1</ele>
        <time>2022-01-08T15:48:26Z</time>
      </trkpt>
      <trkpt lat="43.6346" lon="3.81159">
        <ele>49.8</ele>
        <time>2022-01-08T15:48:36Z</time>
      </trkpt>
      <trkpt lat="43.63461" lon="3.81223">
        <ele>49.8</ele>
        <time>2022-01-08T15:48:46Z</time>
      </trkpt>
      <trkpt lat="43.63456" lon="3.81278">
        <ele>50.5</ele>
        <time>2022-01-08T15:48:56Z</time>
      </trkpt>
      <trkpt lat="43.63438" lon="3.81328">
        <ele>49.2</ele>
        <time>2022-01-08T15:49:06Z</time>
      </trkpt>
      <trkpt lat="43.63404" lon="3.81359">
        <ele>47.4</ele>
        <time>2022-01-08T15:49:16Z</time>
      </trkpt>
      <trkpt lat="43.63371" lon="3.81383">
        <ele>47</ele>
        <time>2022-01-08T15:49:26Z</time>
      </trkpt>
      <trkpt lat="43.63343" lon="3.81411">
        <ele>45.6</ele>
        <time>2022-01-08T15:49:36Z</time>
      </trkpt>
      <trkpt lat="43.63311" lon="3.81449">
        <ele>44.5</ele>
        <time>2022-01-08T15:49:46Z</time>
      </trkpt>
      <trkpt lat="43.63281" lon="3.81494">
        <ele>45.8</ele>
        <time>2022-01-08T15:49:56Z</time>
      </trkpt>
      <trkpt lat="43.6325" lon="3.81533">
        <ele>44.8</ele>
        <time>2022-01-08T15:50:06Z</time>
      </trkpt>
      <trkpt lat="43.63218" lon="3.81572">
        <ele>45.9</ele>
        <time>2022-01-08T15:50:16Z</time>
      </trkpt>
      <trkpt lat="43.63186" lon="3.81611">
        <ele>45.9</ele>
        <time>2022-01-08T15:50:26Z</time>
      </trkpt>
      <trkpt lat="43.63147" lon="3.81637">
        <ele>46.1</ele>
        <time>2022-01-08T15:50:36Z</time>
      </trkpt>
      <trkpt lat="43.63113" lon="3.81639">
        <ele>43.2</ele>
        <time>2022-01-08T15:50:46Z</time>
      </trkpt>
      <trkpt lat="43.63083" lon="3.81647">
        <ele>40.5</ele>
        <time>2022-01-08T15:50:56Z</time>
      </trkpt>
      <trkpt lat="43.63029" lon="3.81637">
        <ele>40.9</ele>
        <time>2022-01-08T15:51:06Z</time>
      </trkpt>
      <trkpt lat="43.6298" lon="3.81641">
        <ele>40.3</ele>
        <time>2022-01-08T15:51:16Z</time>
      </trkpt>
      <trkpt lat="43.62941" lon="3.81629">
        <ele>40.8</ele>
        <time>2022-01-08T15:51:26Z</time>
      </trkpt>
      <trkpt lat="43.6291" lon="3.81644">
        <ele>43.9</ele>
        <time>2022-01-08T15:51:36Z</time>
      </trkpt>
      <trkpt lat="43.62904" lon="3.81673">
        <ele>45.4</ele>
        <time>2022-01-08T15:51:46Z</time>
      </trkpt>
      <trkpt lat="43.62904" lon="3.81697">
        <ele>47.2</ele>
        <time>2022-01-08T15:51:56Z</time>
      </trkpt>
      <trkpt lat="43.62904" lon="3.81721">
        <ele>48.6</ele>
        <time>2022-01-08T15:52:06Z</time>
      </trkpt>
      <trkpt lat="43.62911" lon="3.8174">
        <ele>49.6</ele>
        <time>2022-01-08T15:52:16Z</time>
      </trkpt>
      <trkpt lat="43.62926" lon="3.81748">
        <ele>50.6</ele>
        <time>2022-01-08T15:52:26Z</time>
      </trkpt>
      <trkpt lat="43.62939" lon="3.81757">
        <ele>51.4</ele>
        <time>2022-01-08T15:52:36Z</time>
      </trkpt>
      <trkpt lat="43.62951" lon="3.81772">
        <ele>51.6</ele>
        <time>2022-01-08T15:52:46Z</time>
      </trkpt>
      <trkpt lat="43.62968" lon="3.81788">
        <ele>52.1</ele>
        <time>2022-01-08T15:52:56Z</time>
      </trkpt>
      <trkpt lat="43.62986" lon="3.81803">
        <ele>52.2</ele>
        <time>2022-01-08T15:53:06Z</time>
      </trkpt>
      <trkpt lat="43.62996" lon="3.81813">
        <ele>52.3</ele>
        <time>2022-01-08T15:53:16Z</time>
      </trkpt>
      <trkpt lat="43.63011" lon="3.81826">
        <ele>52.5</ele>
        <time>2022-01-08T15:53:26Z</time>
      </trkpt>
      <trkpt lat="43.63025" lon="3.81841">
        <ele>52.6</ele>
        <time>2022-01-08T15:53:36Z</time>
      </trkpt>
      <trkpt lat="43.63047" lon="3.81862">
        <ele>53.3</ele>
        <time>2022-01-08T15:53:46Z</time>
      </trkpt>
      <trkpt lat="43.63062" lon="3.81899">
        <ele>52.4</ele>
        <time>2022-01-08T15:53:56Z</time>
      </trkpt>
      <trkpt lat="43.6307" lon="3.81944">
        <ele>52.5</ele>
        <time>2022-01-08T15:54:06Z</time>
      </trkpt>
      <trkpt lat="43.63074" lon="3.81983">
        <ele>52.7</ele>
        <time>2022-01-08T15:54:16Z</time>
      </trkpt>
      <trkpt lat="43.63071" lon="3.82034">
        <ele>53</ele>
        <time>2022-01-08T15:54:26Z</time>
      </trkpt>
      <trkpt lat="43.63068" lon="3.82085">
        <ele>53.5</ele>
        <time>2022-01-08T15:54:36Z</time>
      </trkpt>
      <trkpt lat="43.63067" lon="3.82131">
        <ele>54</ele>
        <time>2022-01-08T15:54:46Z</time>
      </trkpt>
      <trkpt lat="43.63065" lon="3.82171">
        <ele>55</ele>
        <time>2022-01-08T15:54:56Z</time>
      </trkpt>
      <trkpt lat="43.63063" lon="3.82212">
        <ele>55</ele>
        <time>2022-01-08T15:55:06Z</time>
      </trkpt>
      <trkpt lat="43.63063" lon="3.8225">
        <ele>51</ele>
        <time>2022-01-08T15:55:16Z</time>
      </trkpt>
      <trkpt lat="43.63062" lon="3.82295">
        <ele>56</ele>
        <time>2022-01-08T15:55:26Z</time>
      </trkpt>
      <trkpt lat="43.6306" lon="3.82346">
        <ele>56</ele>
        <time>2022-01-08T15:55:36Z</time>
      </trkpt>
      <trkpt lat="43.63058" lon="3.82397">
        <ele>56</ele>
        <time>2022-01-08T15:55:46Z</time>
      </trkpt>
      <trkpt lat="43.63055" lon="3.82449">
        <ele>55</ele>
        <time>2022-01-08T15:55:56Z</time>
      </trkpt>
      <trkpt lat="43.63045" lon="3.82506">
        <ele>54.6</ele>
        <time>2022-01-08T15:56:06Z</time>
      </trkpt>
      <trkpt lat="43.6304" lon="3.82561">
        <ele>55.1</ele>
        <time>2022-01-08T15:56:16Z</time>
      </trkpt>
      <trkpt lat="43.63038" lon="3.82605">
        <ele>57.5</ele>
        <time>2022-01-08T15:56:26Z</time>
      </trkpt>
      <trkpt lat="43.63032" lon="3.82637">
        <ele>59.7</ele>
        <time>2022-01-08T15:56:36Z</time>
      </trkpt>
      <trkpt lat="43.63007" lon="3.82645">
        <ele>59.9</ele>
        <time>2022-01-08T15:56:46Z</time>
      </trkpt>
      <trkpt lat="43.62988" lon="3.82667">
        <ele>60</ele>
        <time>2022-01-08T15:56:56Z</time>
      </trkpt>
      <trkpt lat="43.62964" lon="3.82685">
        <ele>59.1</ele>
        <time>2022-01-08T15:57:06Z</time>
      </trkpt>
      <trkpt lat="43.62939" lon="3.82714">
        <ele>59.4</ele>
        <time>2022-01-08T15:57:16Z</time>
      </trkpt>
      <trkpt lat="43.62915" lon="3.82744">
        <ele>60</ele>
        <time>2022-01-08T15:57:26Z</time>
      </trkpt>
      <trkpt lat="43.62902" lon="3.82785">
        <ele>62.5</ele>
        <time>2022-01-08T15:57:36Z</time>
      </trkpt>
      <trkpt lat="43.62887" lon="3.82813">
        <ele>64.6</ele>
        <time>2022-01-08T15:57:46Z</time>
      </trkpt>
      <trkpt lat="43.62867" lon="3.82815">
        <ele>64.9</ele>
        <time>2022-01-08T15:57:56Z</time>
      </trkpt>
      <trkpt lat="43.62849" lon="3.82821">
        <ele>65.5</ele>
        <time>2022-01-08T15:58:06Z</time>
      </trkpt>
      <trkpt lat="43.6285" lon="3.82846">
        <ele>67.7</ele>
        <time>2022-01-08T15:58:16Z</time>
      </trkpt>
      <trkpt lat="43.62845" lon="3.82873">
        <ele>69.1</ele>
        <time>2022-01-08T15:58:26Z</time>
      </trkpt>
      <trkpt lat="43.6284" lon="3.82901">
        <ele>70.2</ele>
        <time>2022-01-08T15:58:36Z</time>
      </trkpt>
      <trkpt lat="43.62835" lon="3.82931">
        <ele>71.1</ele>
        <time>2022-01-08T15:58:46Z</time>
      </trkpt>
      <trkpt lat="43.62833" lon="3.82955">
        <ele>73.1</ele>
        <time>2022-01-08T15:58:56Z</time>
      </trkpt>
      <trkpt lat="43.62834" lon="3.82978">
        <ele>75.2</ele>
        <time>2022-01-08T15:59:06Z</time>
      </trkpt>
      <trkpt lat="43.62835" lon="3.83002">
        <ele>76.2</ele>
        <time>2022-01-08T15:59:16Z</time>
      </trkpt>
      <trkpt lat="43.62837" lon="3.83025">
        <ele>77.8</ele>
        <time>2022-01-08T15:59:26Z</time>
      </trkpt>
      <trkpt lat="43.62841" lon="3.83046">
        <ele>79.3</ele>
        <time>2022-01-08T15:59:36Z</time>
      </trkpt>
      <trkpt lat="43.62846" lon="3.83065">
        <ele>81.2</ele>
        <time>2022-01-08T15:59:46Z</time>
      </trkpt>
      <trkpt lat="43.62839" lon="3.83082">
        <ele>83.6</ele>
        <time>2022-01-08T15:59:56Z</time>
      </trkpt>
      <trkpt lat="43.62823" lon="3.83086">
        <ele>84.1</ele>
        <time>2022-01-08T16:00:06Z</time>
      </trkpt>
      <trkpt lat="43.62804" lon="3.83091">
        <ele>84.4</ele>
        <time>2022-01-08T16:00:16Z</time>
      </trkpt>
      <trkpt lat="43.62785" lon="3.83096">
        <ele>85.3</ele>
        <time>2022-01-08T16:00:26Z</time>
      </trkpt>
      <trkpt lat="43.62769" lon="3.83097">
        <ele>85.7</ele>
        <time>2022-01-08T16:00:36Z</time>
      </trkpt>
      <trkpt lat="43.62754" lon="3.83101">
        <ele>85.9</ele>
        <time>2022-01-08T16:00:46Z</time>
      </trkpt>
      <trkpt lat="43.62739" lon="3.83108">
        <ele>86</ele>
        <time>2022-01-08T16:00:56Z</time>
      </trkpt>
      <trkpt lat="43.62712" lon="3.83123">
        <ele>85</ele>
        <time>2022-01-08T16:04:36Z</time>
      </trkpt>
      <trkpt lat="43.62676" lon="3.83151">
        <ele>82.9</ele>
        <time>2022-01-08T16:04:56Z</time>
      </trkpt>
      <trkpt lat="43.62646" lon="3.83182">
        <ele>81.3</ele>
        <time>2022-01-08T16:05:06Z</time>
      </trkpt>
      <trkpt lat="43.62592" lon="3.8322">
        <ele>79.3</ele>
        <time>2022-01-08T16:05:16Z</time>
      </trkpt>
      <trkpt lat="43.62543" lon="3.83278">
        <ele>77.1</ele>
        <time>2022-01-08T16:05:26Z</time>
      </trkpt>
      <trkpt lat="43.62514" lon="3.83369">
        <ele>75.6</ele>
        <time>2022-01-08T16:05:36Z</time>
      </trkpt>
      <trkpt lat="43.62478" lon="3.83427">
        <ele>74.2</ele>
        <time>2022-01-08T16:05:46Z</time>
      </trkpt>
      <trkpt lat="43.62436" lon="3.83429">
        <ele>72.1</ele>
        <time>2022-01-08T16:05:56Z</time>
      </trkpt>
      <trkpt lat="43.62397" lon="3.83448">
        <ele>74.9</ele>
        <time>2022-01-08T16:06:06Z</time>
      </trkpt>
      <trkpt lat="43.62347" lon="3.83437">
        <ele>75.1</ele>
        <time>2022-01-08T16:06:16Z</time>
      </trkpt>
      <trkpt lat="43.62302" lon="3.83468">
        <ele>75.7</ele>
        <time>2022-01-08T16:06:26Z</time>
      </trkpt>
      <trkpt lat="43.62277" lon="3.83518">
        <ele>76.3</ele>
        <time>2022-01-08T16:06:36Z</time>
      </trkpt>
      <trkpt lat="43.62251" lon="3.83508">
        <ele>76</ele>
        <time>2022-01-08T16:06:46Z</time>
      </trkpt>
      <trkpt lat="43.62217" lon="3.83494">
        <ele>76</ele>
        <time>2022-01-08T16:06:56Z</time>
      </trkpt>
      <trkpt lat="43.62178" lon="3.8345">
        <ele>75.2</ele>
        <time>2022-01-08T16:07:06Z</time>
      </trkpt>
      <trkpt lat="43.62131" lon="3.83415">
        <ele>75</ele>
        <time>2022-01-08T16:07:16Z</time>
      </trkpt>
      <trkpt lat="43.62089" lon="3.83367">
        <ele>75</ele>
        <time>2022-01-08T16:07:26Z</time>
      </trkpt>
      <trkpt lat="43.62047" lon="3.83316">
        <ele>74.1</ele>
        <time>2022-01-08T16:07:36Z</time>
      </trkpt>
      <trkpt lat="43.6201" lon="3.83269">
        <ele>74.1</ele>
        <time>2022-01-08T16:07:46Z</time>
      </trkpt>
      <trkpt lat="43.61978" lon="3.83249">
        <ele>73.2</ele>
        <time>2022-01-08T16:07:56Z</time>
      </trkpt>
      <trkpt lat="43.61932" lon="3.83251">
        <ele>72.6</ele>
        <time>2022-01-08T16:08:06Z</time>
      </trkpt>
      <trkpt lat="43.61876" lon="3.8322">
        <ele>72</ele>
        <time>2022-01-08T16:08:16Z</time>
      </trkpt>
      <trkpt lat="43.61822" lon="3.83184">
        <ele>70.6</ele>
        <time>2022-01-08T16:08:26Z</time>
      </trkpt>
      <trkpt lat="43.61772" lon="3.83152">
        <ele>70</ele>
        <time>2022-01-08T16:08:36Z</time>
      </trkpt>
      <trkpt lat="43.61721" lon="3.83118">
        <ele>69.2</ele>
        <time>2022-01-08T16:08:46Z</time>
      </trkpt>
      <trkpt lat="43.61671" lon="3.8307">
        <ele>69.1</ele>
        <time>2022-01-08T16:08:56Z</time>
      </trkpt>
      <trkpt lat="43.61622" lon="3.83029">
        <ele>67.4</ele>
        <time>2022-01-08T16:09:06Z</time>
      </trkpt>
      <trkpt lat="43.61573" lon="3.82993">
        <ele>65.9</ele>
        <time>2022-01-08T16:09:16Z</time>
      </trkpt>
      <trkpt lat="43.61529" lon="3.82959">
        <ele>64.6</ele>
        <time>2022-01-08T16:09:26Z</time>
      </trkpt>
      <trkpt lat="43.61486" lon="3.82926">
        <ele>63</ele>
        <time>2022-01-08T16:09:36Z</time>
      </trkpt>
      <trkpt lat="43.61468" lon="3.82895">
        <ele>62.7</ele>
        <time>2022-01-08T16:09:46Z</time>
      </trkpt>
    </trkseg>
  </trk>
</gpx>